<?xml version="1.0" encoding="UTF-8" standalone="no" ?>
<gpx xmlns="http://www.topografix.com/GPX/1/1" xmlns:xsi="http://www.w3.org/2001/XMLSchema-instance" xsi:schemaLocation="http://www.topografix.com/GPX/1/1 http://www.topografix.com/GPX/1/1/gpx.xsd" version="1.1" creator="VisuGPX - https://www.visugpx.com">
  <metadata>
    <name>pamiers issards</name>
  </metadata>
  <trk>
    <name><![CDATA[pamiers issards_2]]></name>
    <trkseg>
      <trkpt lat="43.11663" lon="1.61111">
        <ele>272.4</ele>
        <time>2019-02-13T12:07:56Z</time>
      </trkpt>
      <trkpt lat="43.11663" lon="1.61111">
        <ele>264</ele>
        <time>2019-02-13T12:06:35Z</time>
      </trkpt>
      <trkpt lat="43.11653" lon="1.61109">
        <ele>263</ele>
        <time>2019-02-13T12:06:32Z</time>
      </trkpt>
      <trkpt lat="43.11639" lon="1.61106">
        <ele>262.2</ele>
        <time>2019-02-13T12:06:29Z</time>
      </trkpt>
      <trkpt lat="43.11628" lon="1.61104">
        <ele>260.6</ele>
        <time>2019-02-13T12:06:24Z</time>
      </trkpt>
      <trkpt lat="43.11619" lon="1.611">
        <ele>259.4</ele>
        <time>2019-02-13T12:06:20Z</time>
      </trkpt>
      <trkpt lat="43.11611" lon="1.61095">
        <ele>258.8</ele>
        <time>2019-02-13T12:06:18Z</time>
      </trkpt>
      <trkpt lat="43.11602" lon="1.61099">
        <ele>257.5</ele>
        <time>2019-02-13T12:06:13Z</time>
      </trkpt>
      <trkpt lat="43.11595" lon="1.61114">
        <ele>257.2</ele>
        <time>2019-02-13T12:06:11Z</time>
      </trkpt>
      <trkpt lat="43.11585" lon="1.61124">
        <ele>257</ele>
        <time>2019-02-13T12:06:10Z</time>
      </trkpt>
      <trkpt lat="43.11575" lon="1.6114">
        <ele>256.2</ele>
        <time>2019-02-13T12:06:07Z</time>
      </trkpt>
      <trkpt lat="43.11569" lon="1.61152">
        <ele>255.2</ele>
        <time>2019-02-13T12:06:05Z</time>
      </trkpt>
      <trkpt lat="43.11564" lon="1.61168">
        <ele>254.7</ele>
        <time>2019-02-13T12:06:03Z</time>
      </trkpt>
      <trkpt lat="43.11559" lon="1.61181">
        <ele>254.7</ele>
        <time>2019-02-13T12:06:01Z</time>
      </trkpt>
      <trkpt lat="43.11553" lon="1.61196">
        <ele>254.4</ele>
        <time>2019-02-13T12:05:59Z</time>
      </trkpt>
      <trkpt lat="43.11545" lon="1.61207">
        <ele>254.2</ele>
        <time>2019-02-13T12:05:57Z</time>
      </trkpt>
      <trkpt lat="43.11539" lon="1.61222">
        <ele>254.3</ele>
        <time>2019-02-13T12:05:55Z</time>
      </trkpt>
      <trkpt lat="43.11537" lon="1.61238">
        <ele>254.7</ele>
        <time>2019-02-13T12:05:53Z</time>
      </trkpt>
      <trkpt lat="43.11537" lon="1.61254">
        <ele>254.8</ele>
        <time>2019-02-13T12:05:50Z</time>
      </trkpt>
      <trkpt lat="43.11537" lon="1.61267">
        <ele>255.2</ele>
        <time>2019-02-13T12:05:48Z</time>
      </trkpt>
      <trkpt lat="43.11536" lon="1.6128">
        <ele>256.1</ele>
        <time>2019-02-13T12:05:46Z</time>
      </trkpt>
      <trkpt lat="43.11537" lon="1.61294">
        <ele>257.5</ele>
        <time>2019-02-13T12:05:44Z</time>
      </trkpt>
      <trkpt lat="43.11539" lon="1.61307">
        <ele>258.7</ele>
        <time>2019-02-13T12:05:42Z</time>
      </trkpt>
      <trkpt lat="43.1154" lon="1.6132">
        <ele>260.6</ele>
        <time>2019-02-13T12:05:40Z</time>
      </trkpt>
      <trkpt lat="43.11541" lon="1.61333">
        <ele>262.6</ele>
        <time>2019-02-13T12:05:38Z</time>
      </trkpt>
      <trkpt lat="43.11542" lon="1.61346">
        <ele>264.8</ele>
        <time>2019-02-13T12:05:36Z</time>
      </trkpt>
      <trkpt lat="43.11544" lon="1.6136">
        <ele>267.2</ele>
        <time>2019-02-13T12:05:34Z</time>
      </trkpt>
      <trkpt lat="43.11548" lon="1.61378">
        <ele>271.4</ele>
        <time>2019-02-13T12:05:31Z</time>
      </trkpt>
      <trkpt lat="43.1155" lon="1.61393">
        <ele>274.5</ele>
        <time>2019-02-13T12:05:29Z</time>
      </trkpt>
      <trkpt lat="43.11551" lon="1.61406">
        <ele>278.2</ele>
        <time>2019-02-13T12:05:27Z</time>
      </trkpt>
      <trkpt lat="43.11552" lon="1.61422">
        <ele>283.4</ele>
        <time>2019-02-13T12:05:24Z</time>
      </trkpt>
      <trkpt lat="43.11555" lon="1.61435">
        <ele>286.5</ele>
        <time>2019-02-13T12:05:22Z</time>
      </trkpt>
      <trkpt lat="43.11556" lon="1.6145">
        <ele>288.5</ele>
        <time>2019-02-13T12:05:20Z</time>
      </trkpt>
      <trkpt lat="43.11556" lon="1.61467">
        <ele>289.4</ele>
        <time>2019-02-13T12:05:17Z</time>
      </trkpt>
      <trkpt lat="43.1156" lon="1.61484">
        <ele>290.1</ele>
        <time>2019-02-13T12:05:14Z</time>
      </trkpt>
      <trkpt lat="43.11556" lon="1.61498">
        <ele>290.4</ele>
        <time>2019-02-13T12:05:10Z</time>
      </trkpt>
      <trkpt lat="43.11557" lon="1.61513">
        <ele>290.7</ele>
        <time>2019-02-13T12:05:07Z</time>
      </trkpt>
      <trkpt lat="43.11557" lon="1.61525">
        <ele>291.5</ele>
        <time>2019-02-13T12:05:05Z</time>
      </trkpt>
      <trkpt lat="43.11559" lon="1.61539">
        <ele>292.1</ele>
        <time>2019-02-13T12:05:03Z</time>
      </trkpt>
      <trkpt lat="43.11559" lon="1.61556">
        <ele>292.5</ele>
        <time>2019-02-13T12:05:01Z</time>
      </trkpt>
      <trkpt lat="43.11559" lon="1.61575">
        <ele>292.9</ele>
        <time>2019-02-13T12:04:59Z</time>
      </trkpt>
      <trkpt lat="43.11556" lon="1.61594">
        <ele>293.3</ele>
        <time>2019-02-13T12:04:57Z</time>
      </trkpt>
      <trkpt lat="43.11551" lon="1.61614">
        <ele>293.6</ele>
        <time>2019-02-13T12:04:55Z</time>
      </trkpt>
      <trkpt lat="43.11546" lon="1.61635">
        <ele>293.9</ele>
        <time>2019-02-13T12:04:53Z</time>
      </trkpt>
      <trkpt lat="43.1154" lon="1.61656">
        <ele>294.2</ele>
        <time>2019-02-13T12:04:51Z</time>
      </trkpt>
      <trkpt lat="43.11533" lon="1.61677">
        <ele>294.5</ele>
        <time>2019-02-13T12:04:49Z</time>
      </trkpt>
      <trkpt lat="43.11527" lon="1.61698">
        <ele>294.7</ele>
        <time>2019-02-13T12:04:47Z</time>
      </trkpt>
      <trkpt lat="43.11522" lon="1.6172">
        <ele>294.9</ele>
        <time>2019-02-13T12:04:45Z</time>
      </trkpt>
      <trkpt lat="43.11516" lon="1.61741">
        <ele>295.1</ele>
        <time>2019-02-13T12:04:43Z</time>
      </trkpt>
      <trkpt lat="43.11511" lon="1.61762">
        <ele>295.4</ele>
        <time>2019-02-13T12:04:41Z</time>
      </trkpt>
      <trkpt lat="43.11505" lon="1.61783">
        <ele>295.5</ele>
        <time>2019-02-13T12:04:39Z</time>
      </trkpt>
      <trkpt lat="43.11499" lon="1.61802">
        <ele>295.6</ele>
        <time>2019-02-13T12:04:37Z</time>
      </trkpt>
      <trkpt lat="43.11493" lon="1.61821">
        <ele>295.8</ele>
        <time>2019-02-13T12:04:35Z</time>
      </trkpt>
      <trkpt lat="43.11486" lon="1.61838">
        <ele>295.9</ele>
        <time>2019-02-13T12:04:33Z</time>
      </trkpt>
      <trkpt lat="43.11475" lon="1.61851">
        <ele>296</ele>
        <time>2019-02-13T12:04:31Z</time>
      </trkpt>
      <trkpt lat="43.11463" lon="1.61862">
        <ele>296.1</ele>
        <time>2019-02-13T12:04:29Z</time>
      </trkpt>
      <trkpt lat="43.11451" lon="1.61874">
        <ele>296.3</ele>
        <time>2019-02-13T12:04:27Z</time>
      </trkpt>
      <trkpt lat="43.1144" lon="1.61885">
        <ele>296.5</ele>
        <time>2019-02-13T12:04:25Z</time>
      </trkpt>
      <trkpt lat="43.11434" lon="1.61901">
        <ele>296.7</ele>
        <time>2019-02-13T12:04:23Z</time>
      </trkpt>
      <trkpt lat="43.11432" lon="1.61917">
        <ele>297</ele>
        <time>2019-02-13T12:04:21Z</time>
      </trkpt>
      <trkpt lat="43.11434" lon="1.61933">
        <ele>297.2</ele>
        <time>2019-02-13T12:04:19Z</time>
      </trkpt>
      <trkpt lat="43.11437" lon="1.61947">
        <ele>297.3</ele>
        <time>2019-02-13T12:04:17Z</time>
      </trkpt>
      <trkpt lat="43.11441" lon="1.6196">
        <ele>297.4</ele>
        <time>2019-02-13T12:04:15Z</time>
      </trkpt>
      <trkpt lat="43.11446" lon="1.61972">
        <ele>297.4</ele>
        <time>2019-02-13T12:04:13Z</time>
      </trkpt>
      <trkpt lat="43.11452" lon="1.61984">
        <ele>297.3</ele>
        <time>2019-02-13T12:04:11Z</time>
      </trkpt>
      <trkpt lat="43.11457" lon="1.61998">
        <ele>297.2</ele>
        <time>2019-02-13T12:04:09Z</time>
      </trkpt>
      <trkpt lat="43.11461" lon="1.62011">
        <ele>297.3</ele>
        <time>2019-02-13T12:04:07Z</time>
      </trkpt>
      <trkpt lat="43.11465" lon="1.62025">
        <ele>297.3</ele>
        <time>2019-02-13T12:04:05Z</time>
      </trkpt>
      <trkpt lat="43.1146" lon="1.62041">
        <ele>297.3</ele>
        <time>2019-02-13T12:04:02Z</time>
      </trkpt>
      <trkpt lat="43.11451" lon="1.62046">
        <ele>297.2</ele>
        <time>2019-02-13T12:04:00Z</time>
      </trkpt>
      <trkpt lat="43.11442" lon="1.62051">
        <ele>297.1</ele>
        <time>2019-02-13T12:03:58Z</time>
      </trkpt>
      <trkpt lat="43.11433" lon="1.62054">
        <ele>297</ele>
        <time>2019-02-13T12:03:56Z</time>
      </trkpt>
      <trkpt lat="43.11424" lon="1.62058">
        <ele>296.9</ele>
        <time>2019-02-13T12:03:54Z</time>
      </trkpt>
      <trkpt lat="43.11414" lon="1.62064">
        <ele>296.8</ele>
        <time>2019-02-13T12:03:52Z</time>
      </trkpt>
      <trkpt lat="43.11404" lon="1.6207">
        <ele>296.8</ele>
        <time>2019-02-13T12:03:50Z</time>
      </trkpt>
      <trkpt lat="43.11398" lon="1.62081">
        <ele>296.8</ele>
        <time>2019-02-13T12:03:48Z</time>
      </trkpt>
      <trkpt lat="43.11394" lon="1.62094">
        <ele>296.8</ele>
        <time>2019-02-13T12:03:46Z</time>
      </trkpt>
      <trkpt lat="43.1139" lon="1.62105">
        <ele>296.8</ele>
        <time>2019-02-13T12:03:44Z</time>
      </trkpt>
      <trkpt lat="43.11382" lon="1.6211">
        <ele>296.8</ele>
        <time>2019-02-13T12:03:42Z</time>
      </trkpt>
      <trkpt lat="43.11372" lon="1.62113">
        <ele>296.9</ele>
        <time>2019-02-13T12:03:40Z</time>
      </trkpt>
      <trkpt lat="43.11363" lon="1.62119">
        <ele>297</ele>
        <time>2019-02-13T12:03:38Z</time>
      </trkpt>
      <trkpt lat="43.11352" lon="1.62125">
        <ele>297</ele>
        <time>2019-02-13T12:03:36Z</time>
      </trkpt>
      <trkpt lat="43.11341" lon="1.62131">
        <ele>297</ele>
        <time>2019-02-13T12:03:34Z</time>
      </trkpt>
      <trkpt lat="43.11332" lon="1.6214">
        <ele>297.1</ele>
        <time>2019-02-13T12:03:32Z</time>
      </trkpt>
      <trkpt lat="43.11323" lon="1.62149">
        <ele>297.1</ele>
        <time>2019-02-13T12:03:30Z</time>
      </trkpt>
      <trkpt lat="43.11314" lon="1.62159">
        <ele>297.1</ele>
        <time>2019-02-13T12:03:28Z</time>
      </trkpt>
      <trkpt lat="43.11306" lon="1.62171">
        <ele>297.1</ele>
        <time>2019-02-13T12:03:26Z</time>
      </trkpt>
      <trkpt lat="43.11298" lon="1.62182">
        <ele>297.1</ele>
        <time>2019-02-13T12:03:24Z</time>
      </trkpt>
      <trkpt lat="43.11291" lon="1.62193">
        <ele>297.2</ele>
        <time>2019-02-13T12:03:22Z</time>
      </trkpt>
      <trkpt lat="43.11283" lon="1.62204">
        <ele>297.3</ele>
        <time>2019-02-13T12:03:20Z</time>
      </trkpt>
      <trkpt lat="43.11275" lon="1.62215">
        <ele>297.3</ele>
        <time>2019-02-13T12:03:18Z</time>
      </trkpt>
      <trkpt lat="43.11269" lon="1.62227">
        <ele>297.3</ele>
        <time>2019-02-13T12:03:16Z</time>
      </trkpt>
      <trkpt lat="43.11262" lon="1.6224">
        <ele>297.4</ele>
        <time>2019-02-13T12:03:14Z</time>
      </trkpt>
      <trkpt lat="43.11255" lon="1.62253">
        <ele>297.5</ele>
        <time>2019-02-13T12:03:12Z</time>
      </trkpt>
      <trkpt lat="43.11248" lon="1.62265">
        <ele>297.5</ele>
        <time>2019-02-13T12:03:10Z</time>
      </trkpt>
      <trkpt lat="43.11241" lon="1.62278">
        <ele>297.6</ele>
        <time>2019-02-13T12:03:08Z</time>
      </trkpt>
      <trkpt lat="43.11235" lon="1.62291">
        <ele>297.8</ele>
        <time>2019-02-13T12:03:06Z</time>
      </trkpt>
      <trkpt lat="43.11229" lon="1.62305">
        <ele>297.9</ele>
        <time>2019-02-13T12:03:04Z</time>
      </trkpt>
      <trkpt lat="43.11225" lon="1.62319">
        <ele>297.9</ele>
        <time>2019-02-13T12:03:02Z</time>
      </trkpt>
      <trkpt lat="43.11222" lon="1.62334">
        <ele>297.9</ele>
        <time>2019-02-13T12:03:00Z</time>
      </trkpt>
      <trkpt lat="43.11219" lon="1.62348">
        <ele>298</ele>
        <time>2019-02-13T12:02:58Z</time>
      </trkpt>
      <trkpt lat="43.11217" lon="1.62363">
        <ele>298.1</ele>
        <time>2019-02-13T12:02:56Z</time>
      </trkpt>
      <trkpt lat="43.11213" lon="1.62377">
        <ele>298.3</ele>
        <time>2019-02-13T12:02:54Z</time>
      </trkpt>
      <trkpt lat="43.1121" lon="1.62392">
        <ele>298.4</ele>
        <time>2019-02-13T12:02:52Z</time>
      </trkpt>
      <trkpt lat="43.11207" lon="1.62407">
        <ele>298.5</ele>
        <time>2019-02-13T12:02:50Z</time>
      </trkpt>
      <trkpt lat="43.11207" lon="1.62422">
        <ele>298.6</ele>
        <time>2019-02-13T12:02:48Z</time>
      </trkpt>
      <trkpt lat="43.11207" lon="1.62437">
        <ele>298.8</ele>
        <time>2019-02-13T12:02:46Z</time>
      </trkpt>
      <trkpt lat="43.11209" lon="1.62453">
        <ele>298.9</ele>
        <time>2019-02-13T12:02:44Z</time>
      </trkpt>
      <trkpt lat="43.11211" lon="1.62469">
        <ele>299</ele>
        <time>2019-02-13T12:02:42Z</time>
      </trkpt>
      <trkpt lat="43.11212" lon="1.62486">
        <ele>299</ele>
        <time>2019-02-13T12:02:40Z</time>
      </trkpt>
      <trkpt lat="43.11206" lon="1.62497">
        <ele>299</ele>
        <time>2019-02-13T12:02:38Z</time>
      </trkpt>
      <trkpt lat="43.11196" lon="1.62504">
        <ele>299</ele>
        <time>2019-02-13T12:02:36Z</time>
      </trkpt>
      <trkpt lat="43.11185" lon="1.62509">
        <ele>299</ele>
        <time>2019-02-13T12:02:34Z</time>
      </trkpt>
      <trkpt lat="43.11174" lon="1.62512">
        <ele>299</ele>
        <time>2019-02-13T12:02:32Z</time>
      </trkpt>
      <trkpt lat="43.11162" lon="1.62516">
        <ele>298.8</ele>
        <time>2019-02-13T12:02:30Z</time>
      </trkpt>
      <trkpt lat="43.11152" lon="1.62524">
        <ele>298.6</ele>
        <time>2019-02-13T12:02:28Z</time>
      </trkpt>
      <trkpt lat="43.11146" lon="1.62536">
        <ele>298.5</ele>
        <time>2019-02-13T12:02:26Z</time>
      </trkpt>
      <trkpt lat="43.11141" lon="1.6255">
        <ele>298.4</ele>
        <time>2019-02-13T12:02:24Z</time>
      </trkpt>
      <trkpt lat="43.11137" lon="1.62565">
        <ele>298.5</ele>
        <time>2019-02-13T12:02:22Z</time>
      </trkpt>
      <trkpt lat="43.11129" lon="1.62572">
        <ele>298.7</ele>
        <time>2019-02-13T12:02:20Z</time>
      </trkpt>
      <trkpt lat="43.11118" lon="1.62571">
        <ele>298.9</ele>
        <time>2019-02-13T12:02:18Z</time>
      </trkpt>
      <trkpt lat="43.11108" lon="1.62569">
        <ele>299.1</ele>
        <time>2019-02-13T12:02:16Z</time>
      </trkpt>
      <trkpt lat="43.11101" lon="1.62577">
        <ele>299.4</ele>
        <time>2019-02-13T12:02:14Z</time>
      </trkpt>
      <trkpt lat="43.11095" lon="1.62589">
        <ele>299.5</ele>
        <time>2019-02-13T12:02:12Z</time>
      </trkpt>
      <trkpt lat="43.11085" lon="1.62596">
        <ele>299.7</ele>
        <time>2019-02-13T12:02:10Z</time>
      </trkpt>
      <trkpt lat="43.11074" lon="1.626">
        <ele>299.9</ele>
        <time>2019-02-13T12:02:08Z</time>
      </trkpt>
      <trkpt lat="43.11064" lon="1.6261">
        <ele>300.1</ele>
        <time>2019-02-13T12:02:06Z</time>
      </trkpt>
      <trkpt lat="43.11056" lon="1.62622">
        <ele>300.3</ele>
        <time>2019-02-13T12:02:04Z</time>
      </trkpt>
      <trkpt lat="43.11048" lon="1.62634">
        <ele>300.4</ele>
        <time>2019-02-13T12:02:02Z</time>
      </trkpt>
      <trkpt lat="43.11038" lon="1.62643">
        <ele>300.6</ele>
        <time>2019-02-13T12:02:00Z</time>
      </trkpt>
      <trkpt lat="43.11026" lon="1.62649">
        <ele>300.7</ele>
        <time>2019-02-13T12:01:58Z</time>
      </trkpt>
      <trkpt lat="43.11013" lon="1.62653">
        <ele>300.9</ele>
        <time>2019-02-13T12:01:56Z</time>
      </trkpt>
      <trkpt lat="43.10988" lon="1.62662">
        <ele>301.1</ele>
        <time>2019-02-13T12:01:52Z</time>
      </trkpt>
      <trkpt lat="43.10976" lon="1.62666">
        <ele>301.2</ele>
        <time>2019-02-13T12:01:50Z</time>
      </trkpt>
      <trkpt lat="43.10964" lon="1.62669">
        <ele>301.3</ele>
        <time>2019-02-13T12:01:48Z</time>
      </trkpt>
      <trkpt lat="43.10951" lon="1.62672">
        <ele>301.4</ele>
        <time>2019-02-13T12:01:46Z</time>
      </trkpt>
      <trkpt lat="43.10939" lon="1.62677">
        <ele>301.5</ele>
        <time>2019-02-13T12:01:44Z</time>
      </trkpt>
      <trkpt lat="43.10927" lon="1.62682">
        <ele>301.7</ele>
        <time>2019-02-13T12:01:42Z</time>
      </trkpt>
      <trkpt lat="43.10917" lon="1.62692">
        <ele>302</ele>
        <time>2019-02-13T12:01:40Z</time>
      </trkpt>
      <trkpt lat="43.1091" lon="1.62705">
        <ele>302.2</ele>
        <time>2019-02-13T12:01:38Z</time>
      </trkpt>
      <trkpt lat="43.109" lon="1.62717">
        <ele>302.4</ele>
        <time>2019-02-13T12:01:36Z</time>
      </trkpt>
      <trkpt lat="43.10891" lon="1.62728">
        <ele>302.7</ele>
        <time>2019-02-13T12:01:34Z</time>
      </trkpt>
      <trkpt lat="43.10881" lon="1.62738">
        <ele>303</ele>
        <time>2019-02-13T12:01:32Z</time>
      </trkpt>
      <trkpt lat="43.10872" lon="1.62748">
        <ele>303.3</ele>
        <time>2019-02-13T12:01:30Z</time>
      </trkpt>
      <trkpt lat="43.10861" lon="1.62759">
        <ele>303.5</ele>
        <time>2019-02-13T12:01:28Z</time>
      </trkpt>
      <trkpt lat="43.10851" lon="1.62771">
        <ele>303.7</ele>
        <time>2019-02-13T12:01:26Z</time>
      </trkpt>
      <trkpt lat="43.10841" lon="1.62783">
        <ele>304</ele>
        <time>2019-02-13T12:01:24Z</time>
      </trkpt>
      <trkpt lat="43.10833" lon="1.62797">
        <ele>304.2</ele>
        <time>2019-02-13T12:01:22Z</time>
      </trkpt>
      <trkpt lat="43.10822" lon="1.62807">
        <ele>304.5</ele>
        <time>2019-02-13T12:01:20Z</time>
      </trkpt>
      <trkpt lat="43.10809" lon="1.62813">
        <ele>304.7</ele>
        <time>2019-02-13T12:01:18Z</time>
      </trkpt>
      <trkpt lat="43.10797" lon="1.62816">
        <ele>304.8</ele>
        <time>2019-02-13T12:01:16Z</time>
      </trkpt>
      <trkpt lat="43.10784" lon="1.6282">
        <ele>304.9</ele>
        <time>2019-02-13T12:01:14Z</time>
      </trkpt>
      <trkpt lat="43.10772" lon="1.62824">
        <ele>305</ele>
        <time>2019-02-13T12:01:12Z</time>
      </trkpt>
      <trkpt lat="43.10761" lon="1.6283">
        <ele>305.1</ele>
        <time>2019-02-13T12:01:10Z</time>
      </trkpt>
      <trkpt lat="43.10748" lon="1.62836">
        <ele>305</ele>
        <time>2019-02-13T12:01:08Z</time>
      </trkpt>
      <trkpt lat="43.10737" lon="1.62843">
        <ele>305</ele>
        <time>2019-02-13T12:01:06Z</time>
      </trkpt>
      <trkpt lat="43.10725" lon="1.6285">
        <ele>304.9</ele>
        <time>2019-02-13T12:01:04Z</time>
      </trkpt>
      <trkpt lat="43.10714" lon="1.62854">
        <ele>304.9</ele>
        <time>2019-02-13T12:01:02Z</time>
      </trkpt>
      <trkpt lat="43.10702" lon="1.62857">
        <ele>304.9</ele>
        <time>2019-02-13T12:01:00Z</time>
      </trkpt>
      <trkpt lat="43.1069" lon="1.62864">
        <ele>304.9</ele>
        <time>2019-02-13T12:00:58Z</time>
      </trkpt>
      <trkpt lat="43.10679" lon="1.62868">
        <ele>305</ele>
        <time>2019-02-13T12:00:56Z</time>
      </trkpt>
      <trkpt lat="43.10668" lon="1.62868">
        <ele>305</ele>
        <time>2019-02-13T12:00:54Z</time>
      </trkpt>
      <trkpt lat="43.10656" lon="1.62868">
        <ele>304.8</ele>
        <time>2019-02-13T12:00:52Z</time>
      </trkpt>
      <trkpt lat="43.10646" lon="1.6287">
        <ele>304.7</ele>
        <time>2019-02-13T12:00:50Z</time>
      </trkpt>
      <trkpt lat="43.10636" lon="1.6287">
        <ele>304.7</ele>
        <time>2019-02-13T12:00:48Z</time>
      </trkpt>
      <trkpt lat="43.10626" lon="1.6287">
        <ele>304.9</ele>
        <time>2019-02-13T12:00:45Z</time>
      </trkpt>
      <trkpt lat="43.1062" lon="1.62884">
        <ele>305</ele>
        <time>2019-02-13T12:00:42Z</time>
      </trkpt>
      <trkpt lat="43.10624" lon="1.62899">
        <ele>305</ele>
        <time>2019-02-13T12:00:39Z</time>
      </trkpt>
      <trkpt lat="43.10628" lon="1.62915">
        <ele>304.8</ele>
        <time>2019-02-13T12:00:36Z</time>
      </trkpt>
      <trkpt lat="43.1063" lon="1.62931">
        <ele>304.4</ele>
        <time>2019-02-13T12:00:33Z</time>
      </trkpt>
      <trkpt lat="43.10631" lon="1.62953">
        <ele>303.5</ele>
        <time>2019-02-13T12:00:30Z</time>
      </trkpt>
      <trkpt lat="43.10632" lon="1.6297">
        <ele>302.3</ele>
        <time>2019-02-13T12:00:27Z</time>
      </trkpt>
      <trkpt lat="43.10633" lon="1.62987">
        <ele>301.5</ele>
        <time>2019-02-13T12:00:24Z</time>
      </trkpt>
      <trkpt lat="43.10637" lon="1.63001">
        <ele>301.3</ele>
        <time>2019-02-13T12:00:21Z</time>
      </trkpt>
      <trkpt lat="43.1064" lon="1.63013">
        <ele>301.2</ele>
        <time>2019-02-13T12:00:18Z</time>
      </trkpt>
      <trkpt lat="43.10644" lon="1.63024">
        <ele>301.2</ele>
        <time>2019-02-13T12:00:15Z</time>
      </trkpt>
      <trkpt lat="43.10646" lon="1.63039">
        <ele>301.1</ele>
        <time>2019-02-13T12:00:10Z</time>
      </trkpt>
      <trkpt lat="43.10647" lon="1.63054">
        <ele>300.9</ele>
        <time>2019-02-13T12:00:07Z</time>
      </trkpt>
      <trkpt lat="43.10647" lon="1.6307">
        <ele>300.7</ele>
        <time>2019-02-13T12:00:05Z</time>
      </trkpt>
      <trkpt lat="43.10644" lon="1.6309">
        <ele>300.7</ele>
        <time>2019-02-13T12:00:02Z</time>
      </trkpt>
      <trkpt lat="43.10648" lon="1.63107">
        <ele>300.5</ele>
        <time>2019-02-13T11:59:59Z</time>
      </trkpt>
      <trkpt lat="43.10656" lon="1.6312">
        <ele>300.5</ele>
        <time>2019-02-13T11:59:56Z</time>
      </trkpt>
      <trkpt lat="43.10662" lon="1.63133">
        <ele>300.5</ele>
        <time>2019-02-13T11:59:53Z</time>
      </trkpt>
      <trkpt lat="43.10664" lon="1.63148">
        <ele>300.5</ele>
        <time>2019-02-13T11:59:49Z</time>
      </trkpt>
      <trkpt lat="43.10663" lon="1.63161">
        <ele>300.5</ele>
        <time>2019-02-13T11:59:46Z</time>
      </trkpt>
      <trkpt lat="43.10664" lon="1.63178">
        <ele>300.6</ele>
        <time>2019-02-13T11:59:42Z</time>
      </trkpt>
      <trkpt lat="43.10666" lon="1.63191">
        <ele>300.8</ele>
        <time>2019-02-13T11:59:39Z</time>
      </trkpt>
      <trkpt lat="43.10665" lon="1.63206">
        <ele>301</ele>
        <time>2019-02-13T11:59:36Z</time>
      </trkpt>
      <trkpt lat="43.10666" lon="1.63222">
        <ele>301.4</ele>
        <time>2019-02-13T11:59:34Z</time>
      </trkpt>
      <trkpt lat="43.10668" lon="1.63239">
        <ele>301.5</ele>
        <time>2019-02-13T11:59:32Z</time>
      </trkpt>
      <trkpt lat="43.10668" lon="1.63254">
        <ele>301.7</ele>
        <time>2019-02-13T11:59:30Z</time>
      </trkpt>
      <trkpt lat="43.10666" lon="1.63268">
        <ele>302</ele>
        <time>2019-02-13T11:59:28Z</time>
      </trkpt>
      <trkpt lat="43.10664" lon="1.63282">
        <ele>302.2</ele>
        <time>2019-02-13T11:59:26Z</time>
      </trkpt>
      <trkpt lat="43.10665" lon="1.63297">
        <ele>302.2</ele>
        <time>2019-02-13T11:59:23Z</time>
      </trkpt>
      <trkpt lat="43.10668" lon="1.63311">
        <ele>302.2</ele>
        <time>2019-02-13T11:59:19Z</time>
      </trkpt>
      <trkpt lat="43.10671" lon="1.63323">
        <ele>302.2</ele>
        <time>2019-02-13T11:59:15Z</time>
      </trkpt>
      <trkpt lat="43.10672" lon="1.63336">
        <ele>302.2</ele>
        <time>2019-02-13T11:59:11Z</time>
      </trkpt>
      <trkpt lat="43.10673" lon="1.63351">
        <ele>302.1</ele>
        <time>2019-02-13T11:59:07Z</time>
      </trkpt>
      <trkpt lat="43.10675" lon="1.63365">
        <ele>302</ele>
        <time>2019-02-13T11:59:03Z</time>
      </trkpt>
      <trkpt lat="43.10676" lon="1.6338">
        <ele>301.9</ele>
        <time>2019-02-13T11:58:59Z</time>
      </trkpt>
      <trkpt lat="43.10676" lon="1.63394">
        <ele>301.7</ele>
        <time>2019-02-13T11:58:55Z</time>
      </trkpt>
      <trkpt lat="43.10675" lon="1.6341">
        <ele>301.6</ele>
        <time>2019-02-13T11:58:50Z</time>
      </trkpt>
      <trkpt lat="43.10674" lon="1.63423">
        <ele>301.4</ele>
        <time>2019-02-13T11:58:45Z</time>
      </trkpt>
      <trkpt lat="43.10675" lon="1.63439">
        <ele>301.4</ele>
        <time>2019-02-13T11:58:41Z</time>
      </trkpt>
      <trkpt lat="43.10677" lon="1.63455">
        <ele>301.4</ele>
        <time>2019-02-13T11:58:37Z</time>
      </trkpt>
      <trkpt lat="43.10678" lon="1.6347">
        <ele>301.5</ele>
        <time>2019-02-13T11:58:34Z</time>
      </trkpt>
      <trkpt lat="43.1068" lon="1.63485">
        <ele>301.7</ele>
        <time>2019-02-13T11:58:31Z</time>
      </trkpt>
      <trkpt lat="43.10682" lon="1.63498">
        <ele>302</ele>
        <time>2019-02-13T11:58:29Z</time>
      </trkpt>
      <trkpt lat="43.10684" lon="1.63511">
        <ele>302.3</ele>
        <time>2019-02-13T11:58:27Z</time>
      </trkpt>
      <trkpt lat="43.10683" lon="1.6353">
        <ele>302.8</ele>
        <time>2019-02-13T11:58:24Z</time>
      </trkpt>
      <trkpt lat="43.10685" lon="1.63547">
        <ele>302.8</ele>
        <time>2019-02-13T11:58:21Z</time>
      </trkpt>
      <trkpt lat="43.10686" lon="1.63561">
        <ele>302.8</ele>
        <time>2019-02-13T11:58:17Z</time>
      </trkpt>
      <trkpt lat="43.10687" lon="1.63574">
        <ele>302.9</ele>
        <time>2019-02-13T11:58:11Z</time>
      </trkpt>
      <trkpt lat="43.10687" lon="1.63587">
        <ele>302.9</ele>
        <time>2019-02-13T11:58:06Z</time>
      </trkpt>
      <trkpt lat="43.10689" lon="1.63602">
        <ele>302.9</ele>
        <time>2019-02-13T11:58:03Z</time>
      </trkpt>
      <trkpt lat="43.1069" lon="1.63617">
        <ele>302.9</ele>
        <time>2019-02-13T11:58:00Z</time>
      </trkpt>
      <trkpt lat="43.10692" lon="1.63635">
        <ele>302.7</ele>
        <time>2019-02-13T11:57:57Z</time>
      </trkpt>
      <trkpt lat="43.10693" lon="1.63648">
        <ele>302.6</ele>
        <time>2019-02-13T11:57:55Z</time>
      </trkpt>
      <trkpt lat="43.10694" lon="1.63662">
        <ele>302.4</ele>
        <time>2019-02-13T11:57:53Z</time>
      </trkpt>
      <trkpt lat="43.10695" lon="1.63676">
        <ele>302.3</ele>
        <time>2019-02-13T11:57:51Z</time>
      </trkpt>
      <trkpt lat="43.10696" lon="1.63691">
        <ele>302.1</ele>
        <time>2019-02-13T11:57:49Z</time>
      </trkpt>
      <trkpt lat="43.10697" lon="1.63706">
        <ele>302.1</ele>
        <time>2019-02-13T11:57:47Z</time>
      </trkpt>
      <trkpt lat="43.10699" lon="1.63721">
        <ele>302.1</ele>
        <time>2019-02-13T11:57:45Z</time>
      </trkpt>
      <trkpt lat="43.107" lon="1.63735">
        <ele>302.1</ele>
        <time>2019-02-13T11:57:43Z</time>
      </trkpt>
      <trkpt lat="43.10701" lon="1.63749">
        <ele>302.2</ele>
        <time>2019-02-13T11:57:41Z</time>
      </trkpt>
      <trkpt lat="43.10702" lon="1.63762">
        <ele>302.2</ele>
        <time>2019-02-13T11:57:39Z</time>
      </trkpt>
      <trkpt lat="43.10704" lon="1.63774">
        <ele>302.2</ele>
        <time>2019-02-13T11:57:37Z</time>
      </trkpt>
      <trkpt lat="43.10707" lon="1.63789">
        <ele>302.1</ele>
        <time>2019-02-13T11:57:35Z</time>
      </trkpt>
      <trkpt lat="43.1071" lon="1.63803">
        <ele>302.1</ele>
        <time>2019-02-13T11:57:33Z</time>
      </trkpt>
      <trkpt lat="43.10712" lon="1.63818">
        <ele>302.1</ele>
        <time>2019-02-13T11:57:31Z</time>
      </trkpt>
      <trkpt lat="43.10715" lon="1.63832">
        <ele>302</ele>
        <time>2019-02-13T11:57:29Z</time>
      </trkpt>
      <trkpt lat="43.10716" lon="1.63846">
        <ele>302</ele>
        <time>2019-02-13T11:57:27Z</time>
      </trkpt>
      <trkpt lat="43.10718" lon="1.63861">
        <ele>302</ele>
        <time>2019-02-13T11:57:25Z</time>
      </trkpt>
      <trkpt lat="43.10719" lon="1.63876">
        <ele>301.9</ele>
        <time>2019-02-13T11:57:23Z</time>
      </trkpt>
      <trkpt lat="43.10719" lon="1.63892">
        <ele>301.7</ele>
        <time>2019-02-13T11:57:21Z</time>
      </trkpt>
      <trkpt lat="43.10719" lon="1.63906">
        <ele>301.4</ele>
        <time>2019-02-13T11:57:19Z</time>
      </trkpt>
      <trkpt lat="43.10719" lon="1.6392">
        <ele>301.2</ele>
        <time>2019-02-13T11:57:17Z</time>
      </trkpt>
      <trkpt lat="43.10718" lon="1.63934">
        <ele>300.9</ele>
        <time>2019-02-13T11:57:15Z</time>
      </trkpt>
      <trkpt lat="43.10717" lon="1.63948">
        <ele>300.7</ele>
        <time>2019-02-13T11:57:13Z</time>
      </trkpt>
      <trkpt lat="43.10716" lon="1.63962">
        <ele>300.6</ele>
        <time>2019-02-13T11:57:11Z</time>
      </trkpt>
      <trkpt lat="43.10715" lon="1.63976">
        <ele>300.3</ele>
        <time>2019-02-13T11:57:09Z</time>
      </trkpt>
      <trkpt lat="43.10713" lon="1.63991">
        <ele>299.9</ele>
        <time>2019-02-13T11:57:07Z</time>
      </trkpt>
      <trkpt lat="43.10713" lon="1.64005">
        <ele>299.7</ele>
        <time>2019-02-13T11:57:05Z</time>
      </trkpt>
      <trkpt lat="43.10711" lon="1.6402">
        <ele>299.4</ele>
        <time>2019-02-13T11:57:03Z</time>
      </trkpt>
      <trkpt lat="43.1071" lon="1.64035">
        <ele>299.3</ele>
        <time>2019-02-13T11:57:01Z</time>
      </trkpt>
      <trkpt lat="43.10709" lon="1.64048">
        <ele>299.2</ele>
        <time>2019-02-13T11:56:59Z</time>
      </trkpt>
      <trkpt lat="43.10708" lon="1.64063">
        <ele>299.2</ele>
        <time>2019-02-13T11:56:57Z</time>
      </trkpt>
      <trkpt lat="43.10708" lon="1.64078">
        <ele>299</ele>
        <time>2019-02-13T11:56:55Z</time>
      </trkpt>
      <trkpt lat="43.1071" lon="1.64093">
        <ele>298.9</ele>
        <time>2019-02-13T11:56:53Z</time>
      </trkpt>
      <trkpt lat="43.10711" lon="1.64108">
        <ele>298.9</ele>
        <time>2019-02-13T11:56:51Z</time>
      </trkpt>
      <trkpt lat="43.10713" lon="1.64123">
        <ele>298.8</ele>
        <time>2019-02-13T11:56:49Z</time>
      </trkpt>
      <trkpt lat="43.10716" lon="1.64138">
        <ele>298.8</ele>
        <time>2019-02-13T11:56:47Z</time>
      </trkpt>
      <trkpt lat="43.1072" lon="1.64151">
        <ele>298.8</ele>
        <time>2019-02-13T11:56:45Z</time>
      </trkpt>
      <trkpt lat="43.10723" lon="1.64165">
        <ele>298.9</ele>
        <time>2019-02-13T11:56:43Z</time>
      </trkpt>
      <trkpt lat="43.10727" lon="1.64179">
        <ele>299</ele>
        <time>2019-02-13T11:56:41Z</time>
      </trkpt>
      <trkpt lat="43.1073" lon="1.64195">
        <ele>299</ele>
        <time>2019-02-13T11:56:39Z</time>
      </trkpt>
      <trkpt lat="43.10733" lon="1.6421">
        <ele>299.1</ele>
        <time>2019-02-13T11:56:37Z</time>
      </trkpt>
      <trkpt lat="43.10736" lon="1.64224">
        <ele>299.3</ele>
        <time>2019-02-13T11:56:35Z</time>
      </trkpt>
      <trkpt lat="43.10739" lon="1.64239">
        <ele>299.4</ele>
        <time>2019-02-13T11:56:33Z</time>
      </trkpt>
      <trkpt lat="43.1074" lon="1.64253">
        <ele>299.5</ele>
        <time>2019-02-13T11:56:31Z</time>
      </trkpt>
      <trkpt lat="43.10742" lon="1.64266">
        <ele>299.4</ele>
        <time>2019-02-13T11:56:29Z</time>
      </trkpt>
      <trkpt lat="43.10744" lon="1.64279">
        <ele>299.4</ele>
        <time>2019-02-13T11:56:27Z</time>
      </trkpt>
      <trkpt lat="43.10747" lon="1.64291">
        <ele>299.4</ele>
        <time>2019-02-13T11:56:25Z</time>
      </trkpt>
      <trkpt lat="43.1075" lon="1.64304">
        <ele>299.4</ele>
        <time>2019-02-13T11:56:23Z</time>
      </trkpt>
      <trkpt lat="43.10753" lon="1.64318">
        <ele>299.3</ele>
        <time>2019-02-13T11:56:21Z</time>
      </trkpt>
      <trkpt lat="43.10757" lon="1.64331">
        <ele>299.3</ele>
        <time>2019-02-13T11:56:19Z</time>
      </trkpt>
      <trkpt lat="43.10763" lon="1.64344">
        <ele>299.2</ele>
        <time>2019-02-13T11:56:17Z</time>
      </trkpt>
      <trkpt lat="43.10768" lon="1.64356">
        <ele>299.3</ele>
        <time>2019-02-13T11:56:15Z</time>
      </trkpt>
      <trkpt lat="43.10772" lon="1.64368">
        <ele>299.4</ele>
        <time>2019-02-13T11:56:13Z</time>
      </trkpt>
      <trkpt lat="43.10776" lon="1.64381">
        <ele>299.7</ele>
        <time>2019-02-13T11:56:11Z</time>
      </trkpt>
      <trkpt lat="43.1078" lon="1.64393">
        <ele>300</ele>
        <time>2019-02-13T11:56:09Z</time>
      </trkpt>
      <trkpt lat="43.10784" lon="1.64406">
        <ele>300.2</ele>
        <time>2019-02-13T11:56:07Z</time>
      </trkpt>
      <trkpt lat="43.10788" lon="1.6442">
        <ele>300.4</ele>
        <time>2019-02-13T11:56:05Z</time>
      </trkpt>
      <trkpt lat="43.10793" lon="1.64434">
        <ele>300.5</ele>
        <time>2019-02-13T11:56:03Z</time>
      </trkpt>
      <trkpt lat="43.10797" lon="1.64449">
        <ele>300.5</ele>
        <time>2019-02-13T11:56:01Z</time>
      </trkpt>
      <trkpt lat="43.10802" lon="1.64464">
        <ele>300.4</ele>
        <time>2019-02-13T11:55:59Z</time>
      </trkpt>
      <trkpt lat="43.10809" lon="1.64479">
        <ele>300.3</ele>
        <time>2019-02-13T11:55:57Z</time>
      </trkpt>
      <trkpt lat="43.10816" lon="1.6449">
        <ele>300.4</ele>
        <time>2019-02-13T11:55:55Z</time>
      </trkpt>
      <trkpt lat="43.10823" lon="1.64502">
        <ele>300.6</ele>
        <time>2019-02-13T11:55:53Z</time>
      </trkpt>
      <trkpt lat="43.10828" lon="1.64515">
        <ele>300.9</ele>
        <time>2019-02-13T11:55:51Z</time>
      </trkpt>
      <trkpt lat="43.10833" lon="1.64527">
        <ele>301.2</ele>
        <time>2019-02-13T11:55:49Z</time>
      </trkpt>
      <trkpt lat="43.10837" lon="1.6454">
        <ele>301.5</ele>
        <time>2019-02-13T11:55:47Z</time>
      </trkpt>
      <trkpt lat="43.10842" lon="1.64554">
        <ele>301.7</ele>
        <time>2019-02-13T11:55:45Z</time>
      </trkpt>
      <trkpt lat="43.10846" lon="1.64567">
        <ele>301.9</ele>
        <time>2019-02-13T11:55:43Z</time>
      </trkpt>
      <trkpt lat="43.1085" lon="1.6458">
        <ele>302.3</ele>
        <time>2019-02-13T11:55:41Z</time>
      </trkpt>
      <trkpt lat="43.10854" lon="1.64593">
        <ele>302.4</ele>
        <time>2019-02-13T11:55:39Z</time>
      </trkpt>
      <trkpt lat="43.10859" lon="1.64607">
        <ele>302.6</ele>
        <time>2019-02-13T11:55:37Z</time>
      </trkpt>
      <trkpt lat="43.10863" lon="1.6462">
        <ele>302.8</ele>
        <time>2019-02-13T11:55:35Z</time>
      </trkpt>
      <trkpt lat="43.10868" lon="1.64635">
        <ele>302.9</ele>
        <time>2019-02-13T11:55:33Z</time>
      </trkpt>
      <trkpt lat="43.10873" lon="1.64649">
        <ele>302.9</ele>
        <time>2019-02-13T11:55:31Z</time>
      </trkpt>
      <trkpt lat="43.10879" lon="1.64663">
        <ele>302.9</ele>
        <time>2019-02-13T11:55:29Z</time>
      </trkpt>
      <trkpt lat="43.10886" lon="1.64677">
        <ele>302.9</ele>
        <time>2019-02-13T11:55:27Z</time>
      </trkpt>
      <trkpt lat="43.10891" lon="1.64692">
        <ele>302.9</ele>
        <time>2019-02-13T11:55:25Z</time>
      </trkpt>
      <trkpt lat="43.10897" lon="1.64707">
        <ele>302.8</ele>
        <time>2019-02-13T11:55:23Z</time>
      </trkpt>
      <trkpt lat="43.10903" lon="1.64722">
        <ele>302.7</ele>
        <time>2019-02-13T11:55:21Z</time>
      </trkpt>
      <trkpt lat="43.10909" lon="1.64736">
        <ele>302.6</ele>
        <time>2019-02-13T11:55:19Z</time>
      </trkpt>
      <trkpt lat="43.10914" lon="1.64749">
        <ele>302.5</ele>
        <time>2019-02-13T11:55:17Z</time>
      </trkpt>
      <trkpt lat="43.10918" lon="1.64762">
        <ele>302.4</ele>
        <time>2019-02-13T11:55:15Z</time>
      </trkpt>
      <trkpt lat="43.10924" lon="1.64775">
        <ele>302.3</ele>
        <time>2019-02-13T11:55:13Z</time>
      </trkpt>
      <trkpt lat="43.10929" lon="1.64788">
        <ele>302.2</ele>
        <time>2019-02-13T11:55:11Z</time>
      </trkpt>
      <trkpt lat="43.10935" lon="1.64802">
        <ele>302.2</ele>
        <time>2019-02-13T11:55:09Z</time>
      </trkpt>
      <trkpt lat="43.1094" lon="1.64817">
        <ele>302.2</ele>
        <time>2019-02-13T11:55:07Z</time>
      </trkpt>
      <trkpt lat="43.10943" lon="1.64832">
        <ele>302.3</ele>
        <time>2019-02-13T11:55:05Z</time>
      </trkpt>
      <trkpt lat="43.10946" lon="1.64848">
        <ele>302.3</ele>
        <time>2019-02-13T11:55:03Z</time>
      </trkpt>
      <trkpt lat="43.10949" lon="1.64863">
        <ele>302.4</ele>
        <time>2019-02-13T11:55:01Z</time>
      </trkpt>
      <trkpt lat="43.10952" lon="1.64878">
        <ele>302.5</ele>
        <time>2019-02-13T11:54:59Z</time>
      </trkpt>
      <trkpt lat="43.10956" lon="1.64892">
        <ele>302.6</ele>
        <time>2019-02-13T11:54:57Z</time>
      </trkpt>
      <trkpt lat="43.10959" lon="1.64907">
        <ele>302.7</ele>
        <time>2019-02-13T11:54:55Z</time>
      </trkpt>
      <trkpt lat="43.10962" lon="1.64922">
        <ele>302.8</ele>
        <time>2019-02-13T11:54:53Z</time>
      </trkpt>
      <trkpt lat="43.10968" lon="1.64936">
        <ele>303</ele>
        <time>2019-02-13T11:54:51Z</time>
      </trkpt>
      <trkpt lat="43.10974" lon="1.64949">
        <ele>303.2</ele>
        <time>2019-02-13T11:54:49Z</time>
      </trkpt>
      <trkpt lat="43.10981" lon="1.64963">
        <ele>303.3</ele>
        <time>2019-02-13T11:54:47Z</time>
      </trkpt>
      <trkpt lat="43.10988" lon="1.64978">
        <ele>303.4</ele>
        <time>2019-02-13T11:54:45Z</time>
      </trkpt>
      <trkpt lat="43.10993" lon="1.64994">
        <ele>303.5</ele>
        <time>2019-02-13T11:54:43Z</time>
      </trkpt>
      <trkpt lat="43.10997" lon="1.65011">
        <ele>303.6</ele>
        <time>2019-02-13T11:54:41Z</time>
      </trkpt>
      <trkpt lat="43.11002" lon="1.65028">
        <ele>303.7</ele>
        <time>2019-02-13T11:54:39Z</time>
      </trkpt>
      <trkpt lat="43.11006" lon="1.65046">
        <ele>303.9</ele>
        <time>2019-02-13T11:54:37Z</time>
      </trkpt>
      <trkpt lat="43.11009" lon="1.65063">
        <ele>304</ele>
        <time>2019-02-13T11:54:35Z</time>
      </trkpt>
      <trkpt lat="43.11011" lon="1.6508">
        <ele>304.1</ele>
        <time>2019-02-13T11:54:33Z</time>
      </trkpt>
      <trkpt lat="43.11014" lon="1.65097">
        <ele>304.3</ele>
        <time>2019-02-13T11:54:31Z</time>
      </trkpt>
      <trkpt lat="43.11015" lon="1.65113">
        <ele>304.4</ele>
        <time>2019-02-13T11:54:29Z</time>
      </trkpt>
      <trkpt lat="43.11017" lon="1.65127">
        <ele>304.5</ele>
        <time>2019-02-13T11:54:27Z</time>
      </trkpt>
      <trkpt lat="43.11019" lon="1.6514">
        <ele>304.5</ele>
        <time>2019-02-13T11:54:25Z</time>
      </trkpt>
      <trkpt lat="43.11023" lon="1.65155">
        <ele>304.8</ele>
        <time>2019-02-13T11:54:22Z</time>
      </trkpt>
      <trkpt lat="43.11027" lon="1.65169">
        <ele>304.8</ele>
        <time>2019-02-13T11:54:19Z</time>
      </trkpt>
      <trkpt lat="43.11028" lon="1.65186">
        <ele>304.8</ele>
        <time>2019-02-13T11:54:16Z</time>
      </trkpt>
      <trkpt lat="43.1103" lon="1.65201">
        <ele>304.8</ele>
        <time>2019-02-13T11:54:14Z</time>
      </trkpt>
      <trkpt lat="43.11031" lon="1.65216">
        <ele>304.8</ele>
        <time>2019-02-13T11:54:12Z</time>
      </trkpt>
      <trkpt lat="43.11033" lon="1.65232">
        <ele>304.8</ele>
        <time>2019-02-13T11:54:10Z</time>
      </trkpt>
      <trkpt lat="43.11034" lon="1.65248">
        <ele>304.9</ele>
        <time>2019-02-13T11:54:08Z</time>
      </trkpt>
      <trkpt lat="43.11034" lon="1.65266">
        <ele>304.9</ele>
        <time>2019-02-13T11:54:06Z</time>
      </trkpt>
      <trkpt lat="43.11035" lon="1.65284">
        <ele>304.9</ele>
        <time>2019-02-13T11:54:04Z</time>
      </trkpt>
      <trkpt lat="43.11038" lon="1.65302">
        <ele>304.9</ele>
        <time>2019-02-13T11:54:02Z</time>
      </trkpt>
      <trkpt lat="43.11042" lon="1.65319">
        <ele>304.9</ele>
        <time>2019-02-13T11:54:00Z</time>
      </trkpt>
      <trkpt lat="43.11045" lon="1.65336">
        <ele>304.9</ele>
        <time>2019-02-13T11:53:58Z</time>
      </trkpt>
      <trkpt lat="43.1105" lon="1.65351">
        <ele>304.9</ele>
        <time>2019-02-13T11:53:56Z</time>
      </trkpt>
      <trkpt lat="43.11053" lon="1.65367">
        <ele>304.8</ele>
        <time>2019-02-13T11:53:54Z</time>
      </trkpt>
      <trkpt lat="43.11057" lon="1.65381">
        <ele>304.8</ele>
        <time>2019-02-13T11:53:52Z</time>
      </trkpt>
      <trkpt lat="43.11059" lon="1.65395">
        <ele>304.8</ele>
        <time>2019-02-13T11:53:50Z</time>
      </trkpt>
      <trkpt lat="43.11062" lon="1.65409">
        <ele>304.7</ele>
        <time>2019-02-13T11:53:48Z</time>
      </trkpt>
      <trkpt lat="43.11064" lon="1.65421">
        <ele>304.7</ele>
        <time>2019-02-13T11:53:46Z</time>
      </trkpt>
      <trkpt lat="43.11066" lon="1.65438">
        <ele>304.6</ele>
        <time>2019-02-13T11:53:43Z</time>
      </trkpt>
      <trkpt lat="43.11068" lon="1.65453">
        <ele>304.6</ele>
        <time>2019-02-13T11:53:40Z</time>
      </trkpt>
      <trkpt lat="43.1107" lon="1.65465">
        <ele>304.6</ele>
        <time>2019-02-13T11:53:37Z</time>
      </trkpt>
      <trkpt lat="43.1107" lon="1.65478">
        <ele>304.6</ele>
        <time>2019-02-13T11:53:33Z</time>
      </trkpt>
      <trkpt lat="43.11071" lon="1.65493">
        <ele>304.6</ele>
        <time>2019-02-13T11:52:58Z</time>
      </trkpt>
      <trkpt lat="43.11075" lon="1.65506">
        <ele>304.6</ele>
        <time>2019-02-13T11:52:55Z</time>
      </trkpt>
      <trkpt lat="43.11079" lon="1.6552">
        <ele>304.6</ele>
        <time>2019-02-13T11:52:52Z</time>
      </trkpt>
      <trkpt lat="43.11081" lon="1.65537">
        <ele>304.7</ele>
        <time>2019-02-13T11:52:49Z</time>
      </trkpt>
      <trkpt lat="43.11085" lon="1.65549">
        <ele>304.7</ele>
        <time>2019-02-13T11:52:47Z</time>
      </trkpt>
      <trkpt lat="43.11089" lon="1.65562">
        <ele>304.7</ele>
        <time>2019-02-13T11:52:45Z</time>
      </trkpt>
      <trkpt lat="43.11093" lon="1.65576">
        <ele>304.7</ele>
        <time>2019-02-13T11:52:43Z</time>
      </trkpt>
      <trkpt lat="43.11097" lon="1.6559">
        <ele>304.7</ele>
        <time>2019-02-13T11:52:41Z</time>
      </trkpt>
      <trkpt lat="43.11101" lon="1.65605">
        <ele>304.7</ele>
        <time>2019-02-13T11:52:39Z</time>
      </trkpt>
      <trkpt lat="43.11104" lon="1.6562">
        <ele>304.7</ele>
        <time>2019-02-13T11:52:37Z</time>
      </trkpt>
      <trkpt lat="43.11106" lon="1.65636">
        <ele>304.7</ele>
        <time>2019-02-13T11:52:35Z</time>
      </trkpt>
      <trkpt lat="43.11107" lon="1.65652">
        <ele>304.7</ele>
        <time>2019-02-13T11:52:33Z</time>
      </trkpt>
      <trkpt lat="43.11105" lon="1.65667">
        <ele>304.7</ele>
        <time>2019-02-13T11:52:31Z</time>
      </trkpt>
      <trkpt lat="43.11101" lon="1.65681">
        <ele>304.7</ele>
        <time>2019-02-13T11:52:29Z</time>
      </trkpt>
      <trkpt lat="43.11097" lon="1.65695">
        <ele>304.7</ele>
        <time>2019-02-13T11:52:27Z</time>
      </trkpt>
      <trkpt lat="43.11094" lon="1.65708">
        <ele>304.7</ele>
        <time>2019-02-13T11:52:25Z</time>
      </trkpt>
      <trkpt lat="43.11089" lon="1.65721">
        <ele>304.8</ele>
        <time>2019-02-13T11:52:23Z</time>
      </trkpt>
      <trkpt lat="43.11086" lon="1.65733">
        <ele>304.7</ele>
        <time>2019-02-13T11:52:21Z</time>
      </trkpt>
      <trkpt lat="43.11083" lon="1.65745">
        <ele>304.8</ele>
        <time>2019-02-13T11:52:19Z</time>
      </trkpt>
      <trkpt lat="43.11079" lon="1.65756">
        <ele>304.8</ele>
        <time>2019-02-13T11:52:17Z</time>
      </trkpt>
      <trkpt lat="43.11074" lon="1.65772">
        <ele>304.8</ele>
        <time>2019-02-13T11:52:14Z</time>
      </trkpt>
      <trkpt lat="43.1107" lon="1.65787">
        <ele>304.8</ele>
        <time>2019-02-13T11:52:11Z</time>
      </trkpt>
      <trkpt lat="43.11062" lon="1.65799">
        <ele>304.8</ele>
        <time>2019-02-13T11:52:08Z</time>
      </trkpt>
      <trkpt lat="43.11056" lon="1.65814">
        <ele>304.8</ele>
        <time>2019-02-13T11:52:05Z</time>
      </trkpt>
      <trkpt lat="43.11054" lon="1.65827">
        <ele>304.8</ele>
        <time>2019-02-13T11:52:03Z</time>
      </trkpt>
      <trkpt lat="43.1105" lon="1.65839">
        <ele>304.8</ele>
        <time>2019-02-13T11:52:01Z</time>
      </trkpt>
      <trkpt lat="43.11047" lon="1.65853">
        <ele>304.8</ele>
        <time>2019-02-13T11:51:59Z</time>
      </trkpt>
      <trkpt lat="43.11043" lon="1.65867">
        <ele>304.8</ele>
        <time>2019-02-13T11:51:57Z</time>
      </trkpt>
      <trkpt lat="43.11039" lon="1.65882">
        <ele>304.7</ele>
        <time>2019-02-13T11:51:55Z</time>
      </trkpt>
      <trkpt lat="43.11035" lon="1.65898">
        <ele>304.7</ele>
        <time>2019-02-13T11:51:53Z</time>
      </trkpt>
      <trkpt lat="43.11031" lon="1.65914">
        <ele>304.8</ele>
        <time>2019-02-13T11:51:51Z</time>
      </trkpt>
      <trkpt lat="43.11027" lon="1.65931">
        <ele>304.8</ele>
        <time>2019-02-13T11:51:49Z</time>
      </trkpt>
      <trkpt lat="43.11022" lon="1.65948">
        <ele>304.9</ele>
        <time>2019-02-13T11:51:47Z</time>
      </trkpt>
      <trkpt lat="43.11018" lon="1.65964">
        <ele>305</ele>
        <time>2019-02-13T11:51:45Z</time>
      </trkpt>
      <trkpt lat="43.11009" lon="1.65997">
        <ele>305.1</ele>
        <time>2019-02-13T11:51:41Z</time>
      </trkpt>
      <trkpt lat="43.11005" lon="1.66013">
        <ele>305.2</ele>
        <time>2019-02-13T11:51:39Z</time>
      </trkpt>
      <trkpt lat="43.10999" lon="1.66029">
        <ele>305.4</ele>
        <time>2019-02-13T11:51:37Z</time>
      </trkpt>
      <trkpt lat="43.10994" lon="1.66046">
        <ele>305.5</ele>
        <time>2019-02-13T11:51:35Z</time>
      </trkpt>
      <trkpt lat="43.10989" lon="1.66063">
        <ele>305.7</ele>
        <time>2019-02-13T11:51:33Z</time>
      </trkpt>
      <trkpt lat="43.10985" lon="1.6608">
        <ele>305.8</ele>
        <time>2019-02-13T11:51:31Z</time>
      </trkpt>
      <trkpt lat="43.1098" lon="1.66097">
        <ele>306</ele>
        <time>2019-02-13T11:51:29Z</time>
      </trkpt>
      <trkpt lat="43.10975" lon="1.66113">
        <ele>306.1</ele>
        <time>2019-02-13T11:51:27Z</time>
      </trkpt>
      <trkpt lat="43.10971" lon="1.6613">
        <ele>306.3</ele>
        <time>2019-02-13T11:51:25Z</time>
      </trkpt>
      <trkpt lat="43.10966" lon="1.66146">
        <ele>306.4</ele>
        <time>2019-02-13T11:51:23Z</time>
      </trkpt>
      <trkpt lat="43.10961" lon="1.66162">
        <ele>306.5</ele>
        <time>2019-02-13T11:51:21Z</time>
      </trkpt>
      <trkpt lat="43.10956" lon="1.66178">
        <ele>306.6</ele>
        <time>2019-02-13T11:51:19Z</time>
      </trkpt>
      <trkpt lat="43.10952" lon="1.66194">
        <ele>306.6</ele>
        <time>2019-02-13T11:51:17Z</time>
      </trkpt>
      <trkpt lat="43.10947" lon="1.6621">
        <ele>306.6</ele>
        <time>2019-02-13T11:51:15Z</time>
      </trkpt>
      <trkpt lat="43.10943" lon="1.66225">
        <ele>306.5</ele>
        <time>2019-02-13T11:51:13Z</time>
      </trkpt>
      <trkpt lat="43.10939" lon="1.66241">
        <ele>306.5</ele>
        <time>2019-02-13T11:51:11Z</time>
      </trkpt>
      <trkpt lat="43.10932" lon="1.66273">
        <ele>306.5</ele>
        <time>2019-02-13T11:51:07Z</time>
      </trkpt>
      <trkpt lat="43.10929" lon="1.66289">
        <ele>306.5</ele>
        <time>2019-02-13T11:51:05Z</time>
      </trkpt>
      <trkpt lat="43.10926" lon="1.66305">
        <ele>306.5</ele>
        <time>2019-02-13T11:51:03Z</time>
      </trkpt>
      <trkpt lat="43.10924" lon="1.66322">
        <ele>306.5</ele>
        <time>2019-02-13T11:51:01Z</time>
      </trkpt>
      <trkpt lat="43.10921" lon="1.66337">
        <ele>306.5</ele>
        <time>2019-02-13T11:50:59Z</time>
      </trkpt>
      <trkpt lat="43.10918" lon="1.66353">
        <ele>306.5</ele>
        <time>2019-02-13T11:50:57Z</time>
      </trkpt>
      <trkpt lat="43.10915" lon="1.66369">
        <ele>306.5</ele>
        <time>2019-02-13T11:50:55Z</time>
      </trkpt>
      <trkpt lat="43.10912" lon="1.66385">
        <ele>306.5</ele>
        <time>2019-02-13T11:50:53Z</time>
      </trkpt>
      <trkpt lat="43.10909" lon="1.66401">
        <ele>306.5</ele>
        <time>2019-02-13T11:50:51Z</time>
      </trkpt>
      <trkpt lat="43.10905" lon="1.66417">
        <ele>306.5</ele>
        <time>2019-02-13T11:50:49Z</time>
      </trkpt>
      <trkpt lat="43.10901" lon="1.66433">
        <ele>306.4</ele>
        <time>2019-02-13T11:50:47Z</time>
      </trkpt>
      <trkpt lat="43.10899" lon="1.66449">
        <ele>306.4</ele>
        <time>2019-02-13T11:50:45Z</time>
      </trkpt>
      <trkpt lat="43.10897" lon="1.66466">
        <ele>306.4</ele>
        <time>2019-02-13T11:50:43Z</time>
      </trkpt>
      <trkpt lat="43.10896" lon="1.66483">
        <ele>306.4</ele>
        <time>2019-02-13T11:50:41Z</time>
      </trkpt>
      <trkpt lat="43.10894" lon="1.66499">
        <ele>306.4</ele>
        <time>2019-02-13T11:50:39Z</time>
      </trkpt>
      <trkpt lat="43.10892" lon="1.66516">
        <ele>306.3</ele>
        <time>2019-02-13T11:50:37Z</time>
      </trkpt>
      <trkpt lat="43.10891" lon="1.66532">
        <ele>306.4</ele>
        <time>2019-02-13T11:50:35Z</time>
      </trkpt>
      <trkpt lat="43.10889" lon="1.66548">
        <ele>306.7</ele>
        <time>2019-02-13T11:50:33Z</time>
      </trkpt>
      <trkpt lat="43.10887" lon="1.66564">
        <ele>306.9</ele>
        <time>2019-02-13T11:50:31Z</time>
      </trkpt>
      <trkpt lat="43.10885" lon="1.66579">
        <ele>307.2</ele>
        <time>2019-02-13T11:50:29Z</time>
      </trkpt>
      <trkpt lat="43.10883" lon="1.66595">
        <ele>307.3</ele>
        <time>2019-02-13T11:50:27Z</time>
      </trkpt>
      <trkpt lat="43.10881" lon="1.6661">
        <ele>307.4</ele>
        <time>2019-02-13T11:50:25Z</time>
      </trkpt>
      <trkpt lat="43.10879" lon="1.66624">
        <ele>307.6</ele>
        <time>2019-02-13T11:50:23Z</time>
      </trkpt>
      <trkpt lat="43.10877" lon="1.66638">
        <ele>307.8</ele>
        <time>2019-02-13T11:50:21Z</time>
      </trkpt>
      <trkpt lat="43.10874" lon="1.66651">
        <ele>307.9</ele>
        <time>2019-02-13T11:50:19Z</time>
      </trkpt>
      <trkpt lat="43.10871" lon="1.66665">
        <ele>308.1</ele>
        <time>2019-02-13T11:50:17Z</time>
      </trkpt>
      <trkpt lat="43.10867" lon="1.66678">
        <ele>308.2</ele>
        <time>2019-02-13T11:50:15Z</time>
      </trkpt>
      <trkpt lat="43.10863" lon="1.6669">
        <ele>308.4</ele>
        <time>2019-02-13T11:50:13Z</time>
      </trkpt>
      <trkpt lat="43.10859" lon="1.66702">
        <ele>308.5</ele>
        <time>2019-02-13T11:50:11Z</time>
      </trkpt>
      <trkpt lat="43.10855" lon="1.66714">
        <ele>308.5</ele>
        <time>2019-02-13T11:50:09Z</time>
      </trkpt>
      <trkpt lat="43.10848" lon="1.66729">
        <ele>308.4</ele>
        <time>2019-02-13T11:50:06Z</time>
      </trkpt>
      <trkpt lat="43.10846" lon="1.6674">
        <ele>308.5</ele>
        <time>2019-02-13T11:50:04Z</time>
      </trkpt>
      <trkpt lat="43.10844" lon="1.66758">
        <ele>308.1</ele>
        <time>2019-02-13T11:50:01Z</time>
      </trkpt>
      <trkpt lat="43.10837" lon="1.66774">
        <ele>307.5</ele>
        <time>2019-02-13T11:49:58Z</time>
      </trkpt>
      <trkpt lat="43.10832" lon="1.66787">
        <ele>307.4</ele>
        <time>2019-02-13T11:49:55Z</time>
      </trkpt>
      <trkpt lat="43.10827" lon="1.66799">
        <ele>307.3</ele>
        <time>2019-02-13T11:49:52Z</time>
      </trkpt>
      <trkpt lat="43.10824" lon="1.66813">
        <ele>307.2</ele>
        <time>2019-02-13T11:49:49Z</time>
      </trkpt>
      <trkpt lat="43.10819" lon="1.66828">
        <ele>306.9</ele>
        <time>2019-02-13T11:49:46Z</time>
      </trkpt>
      <trkpt lat="43.10817" lon="1.66842">
        <ele>306.8</ele>
        <time>2019-02-13T11:49:43Z</time>
      </trkpt>
      <trkpt lat="43.10813" lon="1.66858">
        <ele>306.2</ele>
        <time>2019-02-13T11:49:40Z</time>
      </trkpt>
      <trkpt lat="43.10809" lon="1.66874">
        <ele>306.1</ele>
        <time>2019-02-13T11:49:37Z</time>
      </trkpt>
      <trkpt lat="43.10804" lon="1.66887">
        <ele>306.2</ele>
        <time>2019-02-13T11:49:34Z</time>
      </trkpt>
      <trkpt lat="43.10799" lon="1.66901">
        <ele>306.5</ele>
        <time>2019-02-13T11:49:31Z</time>
      </trkpt>
      <trkpt lat="43.10795" lon="1.66914">
        <ele>306.6</ele>
        <time>2019-02-13T11:49:28Z</time>
      </trkpt>
      <trkpt lat="43.10791" lon="1.66927">
        <ele>306.7</ele>
        <time>2019-02-13T11:49:25Z</time>
      </trkpt>
      <trkpt lat="43.10786" lon="1.66939">
        <ele>306.8</ele>
        <time>2019-02-13T11:49:22Z</time>
      </trkpt>
      <trkpt lat="43.1078" lon="1.66953">
        <ele>306.8</ele>
        <time>2019-02-13T11:49:18Z</time>
      </trkpt>
      <trkpt lat="43.10773" lon="1.66963">
        <ele>306.9</ele>
        <time>2019-02-13T11:49:15Z</time>
      </trkpt>
      <trkpt lat="43.10765" lon="1.66974">
        <ele>306.7</ele>
        <time>2019-02-13T11:49:12Z</time>
      </trkpt>
      <trkpt lat="43.10758" lon="1.66987">
        <ele>306.5</ele>
        <time>2019-02-13T11:49:09Z</time>
      </trkpt>
      <trkpt lat="43.10751" lon="1.66999">
        <ele>306.3</ele>
        <time>2019-02-13T11:49:06Z</time>
      </trkpt>
      <trkpt lat="43.10742" lon="1.67012">
        <ele>306</ele>
        <time>2019-02-13T11:49:03Z</time>
      </trkpt>
      <trkpt lat="43.10732" lon="1.67022">
        <ele>305.8</ele>
        <time>2019-02-13T11:49:00Z</time>
      </trkpt>
      <trkpt lat="43.10722" lon="1.67029">
        <ele>305.7</ele>
        <time>2019-02-13T11:48:57Z</time>
      </trkpt>
      <trkpt lat="43.10712" lon="1.67034">
        <ele>305.7</ele>
        <time>2019-02-13T11:48:54Z</time>
      </trkpt>
      <trkpt lat="43.10703" lon="1.67037">
        <ele>305.6</ele>
        <time>2019-02-13T11:48:51Z</time>
      </trkpt>
      <trkpt lat="43.10692" lon="1.67042">
        <ele>305.2</ele>
        <time>2019-02-13T11:48:40Z</time>
      </trkpt>
      <trkpt lat="43.10693" lon="1.67057">
        <ele>305</ele>
        <time>2019-02-13T11:48:38Z</time>
      </trkpt>
      <trkpt lat="43.10692" lon="1.67072">
        <ele>304.9</ele>
        <time>2019-02-13T11:48:36Z</time>
      </trkpt>
      <trkpt lat="43.10691" lon="1.67087">
        <ele>304.8</ele>
        <time>2019-02-13T11:48:34Z</time>
      </trkpt>
      <trkpt lat="43.1069" lon="1.67103">
        <ele>304.7</ele>
        <time>2019-02-13T11:48:32Z</time>
      </trkpt>
      <trkpt lat="43.10689" lon="1.67118">
        <ele>304.9</ele>
        <time>2019-02-13T11:48:30Z</time>
      </trkpt>
      <trkpt lat="43.10688" lon="1.67134">
        <ele>305.1</ele>
        <time>2019-02-13T11:48:28Z</time>
      </trkpt>
      <trkpt lat="43.10687" lon="1.67149">
        <ele>305.2</ele>
        <time>2019-02-13T11:48:26Z</time>
      </trkpt>
      <trkpt lat="43.10685" lon="1.67164">
        <ele>305.2</ele>
        <time>2019-02-13T11:48:24Z</time>
      </trkpt>
      <trkpt lat="43.10684" lon="1.67178">
        <ele>305</ele>
        <time>2019-02-13T11:48:22Z</time>
      </trkpt>
      <trkpt lat="43.10683" lon="1.67193">
        <ele>304.7</ele>
        <time>2019-02-13T11:48:20Z</time>
      </trkpt>
      <trkpt lat="43.10681" lon="1.67206">
        <ele>304.5</ele>
        <time>2019-02-13T11:48:18Z</time>
      </trkpt>
      <trkpt lat="43.10681" lon="1.67221">
        <ele>304.1</ele>
        <time>2019-02-13T11:48:16Z</time>
      </trkpt>
      <trkpt lat="43.1068" lon="1.67236">
        <ele>304</ele>
        <time>2019-02-13T11:48:14Z</time>
      </trkpt>
      <trkpt lat="43.10679" lon="1.67252">
        <ele>304</ele>
        <time>2019-02-13T11:48:12Z</time>
      </trkpt>
      <trkpt lat="43.10678" lon="1.67267">
        <ele>304.2</ele>
        <time>2019-02-13T11:48:10Z</time>
      </trkpt>
      <trkpt lat="43.10677" lon="1.67283">
        <ele>304.5</ele>
        <time>2019-02-13T11:48:08Z</time>
      </trkpt>
      <trkpt lat="43.10675" lon="1.67297">
        <ele>304.7</ele>
        <time>2019-02-13T11:48:06Z</time>
      </trkpt>
      <trkpt lat="43.10674" lon="1.67313">
        <ele>304.6</ele>
        <time>2019-02-13T11:48:04Z</time>
      </trkpt>
      <trkpt lat="43.10673" lon="1.67328">
        <ele>304.6</ele>
        <time>2019-02-13T11:48:02Z</time>
      </trkpt>
      <trkpt lat="43.10671" lon="1.67342">
        <ele>304.6</ele>
        <time>2019-02-13T11:48:00Z</time>
      </trkpt>
      <trkpt lat="43.10671" lon="1.67356">
        <ele>304.4</ele>
        <time>2019-02-13T11:47:58Z</time>
      </trkpt>
      <trkpt lat="43.1067" lon="1.67371">
        <ele>304.1</ele>
        <time>2019-02-13T11:47:56Z</time>
      </trkpt>
      <trkpt lat="43.1067" lon="1.67386">
        <ele>304</ele>
        <time>2019-02-13T11:47:54Z</time>
      </trkpt>
      <trkpt lat="43.10669" lon="1.67401">
        <ele>304.1</ele>
        <time>2019-02-13T11:47:52Z</time>
      </trkpt>
      <trkpt lat="43.10667" lon="1.67416">
        <ele>304.2</ele>
        <time>2019-02-13T11:47:50Z</time>
      </trkpt>
      <trkpt lat="43.10666" lon="1.6743">
        <ele>304.4</ele>
        <time>2019-02-13T11:47:48Z</time>
      </trkpt>
      <trkpt lat="43.10665" lon="1.67445">
        <ele>304.8</ele>
        <time>2019-02-13T11:47:46Z</time>
      </trkpt>
      <trkpt lat="43.10664" lon="1.6746">
        <ele>305.3</ele>
        <time>2019-02-13T11:47:44Z</time>
      </trkpt>
      <trkpt lat="43.10663" lon="1.67474">
        <ele>305.8</ele>
        <time>2019-02-13T11:47:42Z</time>
      </trkpt>
      <trkpt lat="43.10661" lon="1.67488">
        <ele>306.2</ele>
        <time>2019-02-13T11:47:40Z</time>
      </trkpt>
      <trkpt lat="43.10658" lon="1.67503">
        <ele>306.4</ele>
        <time>2019-02-13T11:47:38Z</time>
      </trkpt>
      <trkpt lat="43.10655" lon="1.67517">
        <ele>306.4</ele>
        <time>2019-02-13T11:47:36Z</time>
      </trkpt>
      <trkpt lat="43.10653" lon="1.67532">
        <ele>306.5</ele>
        <time>2019-02-13T11:47:34Z</time>
      </trkpt>
      <trkpt lat="43.10652" lon="1.67546">
        <ele>307.1</ele>
        <time>2019-02-13T11:47:32Z</time>
      </trkpt>
      <trkpt lat="43.10649" lon="1.67558">
        <ele>307.9</ele>
        <time>2019-02-13T11:47:30Z</time>
      </trkpt>
      <trkpt lat="43.10646" lon="1.67575">
        <ele>309.1</ele>
        <time>2019-02-13T11:47:27Z</time>
      </trkpt>
      <trkpt lat="43.10645" lon="1.6759">
        <ele>309.5</ele>
        <time>2019-02-13T11:47:24Z</time>
      </trkpt>
      <trkpt lat="43.10643" lon="1.67607">
        <ele>309.8</ele>
        <time>2019-02-13T11:47:21Z</time>
      </trkpt>
      <trkpt lat="43.10641" lon="1.6762">
        <ele>310</ele>
        <time>2019-02-13T11:47:18Z</time>
      </trkpt>
      <trkpt lat="43.10638" lon="1.67632">
        <ele>310</ele>
        <time>2019-02-13T11:47:15Z</time>
      </trkpt>
      <trkpt lat="43.10638" lon="1.67649">
        <ele>310</ele>
        <time>2019-02-13T11:47:11Z</time>
      </trkpt>
      <trkpt lat="43.10637" lon="1.67662">
        <ele>310</ele>
        <time>2019-02-13T11:47:08Z</time>
      </trkpt>
      <trkpt lat="43.10635" lon="1.67677">
        <ele>309.9</ele>
        <time>2019-02-13T11:47:04Z</time>
      </trkpt>
      <trkpt lat="43.10634" lon="1.6769">
        <ele>309.7</ele>
        <time>2019-02-13T11:47:00Z</time>
      </trkpt>
      <trkpt lat="43.10631" lon="1.67704">
        <ele>309.3</ele>
        <time>2019-02-13T11:46:55Z</time>
      </trkpt>
      <trkpt lat="43.10631" lon="1.67719">
        <ele>309.2</ele>
        <time>2019-02-13T11:46:51Z</time>
      </trkpt>
      <trkpt lat="43.10629" lon="1.67734">
        <ele>309.2</ele>
        <time>2019-02-13T11:46:47Z</time>
      </trkpt>
      <trkpt lat="43.10627" lon="1.67747">
        <ele>309.2</ele>
        <time>2019-02-13T11:46:44Z</time>
      </trkpt>
      <trkpt lat="43.10624" lon="1.67759">
        <ele>309.3</ele>
        <time>2019-02-13T11:46:41Z</time>
      </trkpt>
      <trkpt lat="43.10622" lon="1.67772">
        <ele>309.3</ele>
        <time>2019-02-13T11:46:38Z</time>
      </trkpt>
      <trkpt lat="43.10619" lon="1.67786">
        <ele>309.4</ele>
        <time>2019-02-13T11:46:34Z</time>
      </trkpt>
      <trkpt lat="43.10616" lon="1.678">
        <ele>309.6</ele>
        <time>2019-02-13T11:46:30Z</time>
      </trkpt>
      <trkpt lat="43.10614" lon="1.67815">
        <ele>309.9</ele>
        <time>2019-02-13T11:46:26Z</time>
      </trkpt>
      <trkpt lat="43.10614" lon="1.67828">
        <ele>310.2</ele>
        <time>2019-02-13T11:46:22Z</time>
      </trkpt>
      <trkpt lat="43.10612" lon="1.67841">
        <ele>310.5</ele>
        <time>2019-02-13T11:46:18Z</time>
      </trkpt>
      <trkpt lat="43.10612" lon="1.67856">
        <ele>310.8</ele>
        <time>2019-02-13T11:46:14Z</time>
      </trkpt>
      <trkpt lat="43.10611" lon="1.67871">
        <ele>311.2</ele>
        <time>2019-02-13T11:46:10Z</time>
      </trkpt>
      <trkpt lat="43.10609" lon="1.67887">
        <ele>311.5</ele>
        <time>2019-02-13T11:46:06Z</time>
      </trkpt>
      <trkpt lat="43.10607" lon="1.679">
        <ele>311.9</ele>
        <time>2019-02-13T11:46:02Z</time>
      </trkpt>
      <trkpt lat="43.10606" lon="1.67912">
        <ele>312.1</ele>
        <time>2019-02-13T11:45:58Z</time>
      </trkpt>
      <trkpt lat="43.10603" lon="1.67927">
        <ele>312.3</ele>
        <time>2019-02-13T11:45:54Z</time>
      </trkpt>
      <trkpt lat="43.10602" lon="1.67941">
        <ele>312.5</ele>
        <time>2019-02-13T11:45:51Z</time>
      </trkpt>
      <trkpt lat="43.10602" lon="1.67956">
        <ele>312.9</ele>
        <time>2019-02-13T11:45:47Z</time>
      </trkpt>
      <trkpt lat="43.10603" lon="1.67971">
        <ele>313</ele>
        <time>2019-02-13T11:45:43Z</time>
      </trkpt>
      <trkpt lat="43.10599" lon="1.67985">
        <ele>313.2</ele>
        <time>2019-02-13T11:45:40Z</time>
      </trkpt>
      <trkpt lat="43.10596" lon="1.67998">
        <ele>313.5</ele>
        <time>2019-02-13T11:45:37Z</time>
      </trkpt>
      <trkpt lat="43.10592" lon="1.68011">
        <ele>313.9</ele>
        <time>2019-02-13T11:45:33Z</time>
      </trkpt>
      <trkpt lat="43.10594" lon="1.68026">
        <ele>314.3</ele>
        <time>2019-02-13T11:45:30Z</time>
      </trkpt>
      <trkpt lat="43.10593" lon="1.68043">
        <ele>315</ele>
        <time>2019-02-13T11:45:26Z</time>
      </trkpt>
      <trkpt lat="43.10594" lon="1.6806">
        <ele>315.5</ele>
        <time>2019-02-13T11:45:23Z</time>
      </trkpt>
      <trkpt lat="43.10594" lon="1.68073">
        <ele>316.1</ele>
        <time>2019-02-13T11:45:20Z</time>
      </trkpt>
      <trkpt lat="43.10596" lon="1.6809">
        <ele>316.9</ele>
        <time>2019-02-13T11:45:15Z</time>
      </trkpt>
      <trkpt lat="43.10589" lon="1.681">
        <ele>317</ele>
        <time>2019-02-13T11:45:12Z</time>
      </trkpt>
      <trkpt lat="43.1058" lon="1.68109">
        <ele>317.1</ele>
        <time>2019-02-13T11:45:09Z</time>
      </trkpt>
      <trkpt lat="43.10571" lon="1.68122">
        <ele>317.1</ele>
        <time>2019-02-13T11:45:06Z</time>
      </trkpt>
      <trkpt lat="43.10565" lon="1.68132">
        <ele>317</ele>
        <time>2019-02-13T11:45:04Z</time>
      </trkpt>
      <trkpt lat="43.10558" lon="1.68141">
        <ele>316.8</ele>
        <time>2019-02-13T11:45:02Z</time>
      </trkpt>
      <trkpt lat="43.1055" lon="1.68151">
        <ele>316.5</ele>
        <time>2019-02-13T11:45:00Z</time>
      </trkpt>
      <trkpt lat="43.10539" lon="1.68164">
        <ele>315.6</ele>
        <time>2019-02-13T11:44:57Z</time>
      </trkpt>
      <trkpt lat="43.10534" lon="1.68175">
        <ele>315.2</ele>
        <time>2019-02-13T11:44:55Z</time>
      </trkpt>
      <trkpt lat="43.10528" lon="1.68185">
        <ele>315.1</ele>
        <time>2019-02-13T11:44:53Z</time>
      </trkpt>
      <trkpt lat="43.10524" lon="1.68195">
        <ele>315</ele>
        <time>2019-02-13T11:44:51Z</time>
      </trkpt>
      <trkpt lat="43.10516" lon="1.68211">
        <ele>314.9</ele>
        <time>2019-02-13T11:44:48Z</time>
      </trkpt>
      <trkpt lat="43.10508" lon="1.68224">
        <ele>314.6</ele>
        <time>2019-02-13T11:44:45Z</time>
      </trkpt>
      <trkpt lat="43.105" lon="1.68236">
        <ele>314.4</ele>
        <time>2019-02-13T11:44:42Z</time>
      </trkpt>
      <trkpt lat="43.10492" lon="1.68249">
        <ele>314.2</ele>
        <time>2019-02-13T11:44:39Z</time>
      </trkpt>
      <trkpt lat="43.10482" lon="1.68259">
        <ele>314.1</ele>
        <time>2019-02-13T11:44:36Z</time>
      </trkpt>
      <trkpt lat="43.10474" lon="1.6827">
        <ele>314</ele>
        <time>2019-02-13T11:44:33Z</time>
      </trkpt>
      <trkpt lat="43.10466" lon="1.68279">
        <ele>314</ele>
        <time>2019-02-13T11:44:30Z</time>
      </trkpt>
      <trkpt lat="43.10462" lon="1.68292">
        <ele>314.1</ele>
        <time>2019-02-13T11:44:27Z</time>
      </trkpt>
      <trkpt lat="43.10457" lon="1.68304">
        <ele>314.2</ele>
        <time>2019-02-13T11:44:24Z</time>
      </trkpt>
      <trkpt lat="43.1045" lon="1.68318">
        <ele>314.2</ele>
        <time>2019-02-13T11:44:21Z</time>
      </trkpt>
      <trkpt lat="43.10446" lon="1.68331">
        <ele>314.3</ele>
        <time>2019-02-13T11:44:19Z</time>
      </trkpt>
      <trkpt lat="43.10443" lon="1.68344">
        <ele>314.4</ele>
        <time>2019-02-13T11:44:17Z</time>
      </trkpt>
      <trkpt lat="43.10438" lon="1.68354">
        <ele>314.5</ele>
        <time>2019-02-13T11:44:15Z</time>
      </trkpt>
      <trkpt lat="43.10433" lon="1.68366">
        <ele>314.5</ele>
        <time>2019-02-13T11:44:13Z</time>
      </trkpt>
      <trkpt lat="43.10428" lon="1.68381">
        <ele>314.5</ele>
        <time>2019-02-13T11:44:10Z</time>
      </trkpt>
      <trkpt lat="43.10422" lon="1.68393">
        <ele>314.4</ele>
        <time>2019-02-13T11:44:07Z</time>
      </trkpt>
      <trkpt lat="43.10417" lon="1.68406">
        <ele>314.4</ele>
        <time>2019-02-13T11:44:04Z</time>
      </trkpt>
      <trkpt lat="43.10411" lon="1.68419">
        <ele>314.4</ele>
        <time>2019-02-13T11:44:01Z</time>
      </trkpt>
      <trkpt lat="43.10406" lon="1.68431">
        <ele>314.4</ele>
        <time>2019-02-13T11:43:58Z</time>
      </trkpt>
      <trkpt lat="43.104" lon="1.68442">
        <ele>314.4</ele>
        <time>2019-02-13T11:43:55Z</time>
      </trkpt>
      <trkpt lat="43.10396" lon="1.68453">
        <ele>314.4</ele>
        <time>2019-02-13T11:43:52Z</time>
      </trkpt>
      <trkpt lat="43.10391" lon="1.68467">
        <ele>314.4</ele>
        <time>2019-02-13T11:43:48Z</time>
      </trkpt>
      <trkpt lat="43.10387" lon="1.68478">
        <ele>314.5</ele>
        <time>2019-02-13T11:43:38Z</time>
      </trkpt>
      <trkpt lat="43.10381" lon="1.68489">
        <ele>314.5</ele>
        <time>2019-02-13T11:43:32Z</time>
      </trkpt>
      <trkpt lat="43.10376" lon="1.685">
        <ele>314.4</ele>
        <time>2019-02-13T11:43:17Z</time>
      </trkpt>
      <trkpt lat="43.10368" lon="1.68508">
        <ele>314.1</ele>
        <time>2019-02-13T11:42:59Z</time>
      </trkpt>
      <trkpt lat="43.10362" lon="1.6852">
        <ele>313.9</ele>
        <time>2019-02-13T11:42:47Z</time>
      </trkpt>
      <trkpt lat="43.10366" lon="1.68533">
        <ele>314.1</ele>
        <time>2019-02-13T11:42:42Z</time>
      </trkpt>
      <trkpt lat="43.10363" lon="1.6855">
        <ele>314.8</ele>
        <time>2019-02-13T11:42:27Z</time>
      </trkpt>
      <trkpt lat="43.10358" lon="1.68565">
        <ele>315.1</ele>
        <time>2019-02-13T11:42:16Z</time>
      </trkpt>
      <trkpt lat="43.10352" lon="1.68575">
        <ele>315.2</ele>
        <time>2019-02-13T11:42:12Z</time>
      </trkpt>
      <trkpt lat="43.10343" lon="1.68581">
        <ele>315.2</ele>
        <time>2019-02-13T11:42:09Z</time>
      </trkpt>
      <trkpt lat="43.10336" lon="1.68589">
        <ele>315.2</ele>
        <time>2019-02-13T11:42:06Z</time>
      </trkpt>
      <trkpt lat="43.10332" lon="1.68601">
        <ele>315.2</ele>
        <time>2019-02-13T11:42:03Z</time>
      </trkpt>
      <trkpt lat="43.10327" lon="1.68615">
        <ele>315.2</ele>
        <time>2019-02-13T11:41:59Z</time>
      </trkpt>
      <trkpt lat="43.10318" lon="1.68628">
        <ele>315.3</ele>
        <time>2019-02-13T11:41:54Z</time>
      </trkpt>
      <trkpt lat="43.10313" lon="1.68641">
        <ele>315.4</ele>
        <time>2019-02-13T11:41:51Z</time>
      </trkpt>
      <trkpt lat="43.10306" lon="1.68651">
        <ele>315.5</ele>
        <time>2019-02-13T11:41:48Z</time>
      </trkpt>
      <trkpt lat="43.10299" lon="1.68662">
        <ele>315.7</ele>
        <time>2019-02-13T11:41:45Z</time>
      </trkpt>
      <trkpt lat="43.1029" lon="1.68672">
        <ele>316.2</ele>
        <time>2019-02-13T11:41:42Z</time>
      </trkpt>
      <trkpt lat="43.10279" lon="1.68682">
        <ele>318.2</ele>
        <time>2019-02-13T11:41:39Z</time>
      </trkpt>
      <trkpt lat="43.10274" lon="1.68692">
        <ele>320.2</ele>
        <time>2019-02-13T11:41:37Z</time>
      </trkpt>
      <trkpt lat="43.10266" lon="1.68705">
        <ele>322.4</ele>
        <time>2019-02-13T11:41:34Z</time>
      </trkpt>
      <trkpt lat="43.10257" lon="1.68711">
        <ele>322.8</ele>
        <time>2019-02-13T11:41:31Z</time>
      </trkpt>
      <trkpt lat="43.10248" lon="1.68715">
        <ele>323.2</ele>
        <time>2019-02-13T11:41:28Z</time>
      </trkpt>
      <trkpt lat="43.10239" lon="1.68708">
        <ele>325.3</ele>
        <time>2019-02-13T11:41:08Z</time>
      </trkpt>
      <trkpt lat="43.10222" lon="1.68709">
        <ele>326</ele>
        <time>2019-02-13T11:41:02Z</time>
      </trkpt>
      <trkpt lat="43.1021" lon="1.68709">
        <ele>326.5</ele>
        <time>2019-02-13T11:40:59Z</time>
      </trkpt>
      <trkpt lat="43.10198" lon="1.68709">
        <ele>327.1</ele>
        <time>2019-02-13T11:40:56Z</time>
      </trkpt>
      <trkpt lat="43.10187" lon="1.68716">
        <ele>328</ele>
        <time>2019-02-13T11:40:53Z</time>
      </trkpt>
      <trkpt lat="43.10179" lon="1.68722">
        <ele>328.2</ele>
        <time>2019-02-13T11:40:50Z</time>
      </trkpt>
      <trkpt lat="43.10174" lon="1.68733">
        <ele>328.6</ele>
        <time>2019-02-13T11:40:48Z</time>
      </trkpt>
      <trkpt lat="43.10166" lon="1.68748">
        <ele>329.5</ele>
        <time>2019-02-13T11:40:45Z</time>
      </trkpt>
      <trkpt lat="43.10162" lon="1.68762">
        <ele>329.8</ele>
        <time>2019-02-13T11:40:42Z</time>
      </trkpt>
      <trkpt lat="43.10159" lon="1.68775">
        <ele>329.9</ele>
        <time>2019-02-13T11:40:39Z</time>
      </trkpt>
      <trkpt lat="43.10161" lon="1.6879">
        <ele>330</ele>
        <time>2019-02-13T11:40:36Z</time>
      </trkpt>
      <trkpt lat="43.10156" lon="1.68802">
        <ele>330.2</ele>
        <time>2019-02-13T11:40:33Z</time>
      </trkpt>
      <trkpt lat="43.10148" lon="1.68817">
        <ele>330.5</ele>
        <time>2019-02-13T11:40:30Z</time>
      </trkpt>
      <trkpt lat="43.10142" lon="1.68827">
        <ele>330.5</ele>
        <time>2019-02-13T11:40:28Z</time>
      </trkpt>
      <trkpt lat="43.10135" lon="1.68836">
        <ele>330.6</ele>
        <time>2019-02-13T11:40:26Z</time>
      </trkpt>
      <trkpt lat="43.10129" lon="1.68845">
        <ele>330.7</ele>
        <time>2019-02-13T11:40:24Z</time>
      </trkpt>
      <trkpt lat="43.10121" lon="1.68856">
        <ele>330.8</ele>
        <time>2019-02-13T11:40:21Z</time>
      </trkpt>
      <trkpt lat="43.10113" lon="1.68869">
        <ele>331</ele>
        <time>2019-02-13T11:40:18Z</time>
      </trkpt>
      <trkpt lat="43.10104" lon="1.6888">
        <ele>331.1</ele>
        <time>2019-02-13T11:40:15Z</time>
      </trkpt>
      <trkpt lat="43.10098" lon="1.68891">
        <ele>331.2</ele>
        <time>2019-02-13T11:40:13Z</time>
      </trkpt>
      <trkpt lat="43.10092" lon="1.68904">
        <ele>331.2</ele>
        <time>2019-02-13T11:40:11Z</time>
      </trkpt>
      <trkpt lat="43.10085" lon="1.68916">
        <ele>331.2</ele>
        <time>2019-02-13T11:40:09Z</time>
      </trkpt>
      <trkpt lat="43.1008" lon="1.68928">
        <ele>331.2</ele>
        <time>2019-02-13T11:40:07Z</time>
      </trkpt>
      <trkpt lat="43.10076" lon="1.68939">
        <ele>331.2</ele>
        <time>2019-02-13T11:40:05Z</time>
      </trkpt>
      <trkpt lat="43.1007" lon="1.68954">
        <ele>331</ele>
        <time>2019-02-13T11:40:02Z</time>
      </trkpt>
      <trkpt lat="43.10064" lon="1.6897">
        <ele>330.7</ele>
        <time>2019-02-13T11:39:59Z</time>
      </trkpt>
      <trkpt lat="43.10057" lon="1.6898">
        <ele>330.5</ele>
        <time>2019-02-13T11:39:57Z</time>
      </trkpt>
      <trkpt lat="43.10049" lon="1.6899">
        <ele>330.3</ele>
        <time>2019-02-13T11:39:55Z</time>
      </trkpt>
      <trkpt lat="43.10042" lon="1.69">
        <ele>330.1</ele>
        <time>2019-02-13T11:39:53Z</time>
      </trkpt>
      <trkpt lat="43.10035" lon="1.6901">
        <ele>329.9</ele>
        <time>2019-02-13T11:39:51Z</time>
      </trkpt>
      <trkpt lat="43.10029" lon="1.6902">
        <ele>329.8</ele>
        <time>2019-02-13T11:39:49Z</time>
      </trkpt>
      <trkpt lat="43.10022" lon="1.69029">
        <ele>329.7</ele>
        <time>2019-02-13T11:39:47Z</time>
      </trkpt>
      <trkpt lat="43.10016" lon="1.69038">
        <ele>329.5</ele>
        <time>2019-02-13T11:39:45Z</time>
      </trkpt>
      <trkpt lat="43.1001" lon="1.69048">
        <ele>329.4</ele>
        <time>2019-02-13T11:39:43Z</time>
      </trkpt>
      <trkpt lat="43.10005" lon="1.69059">
        <ele>329.3</ele>
        <time>2019-02-13T11:39:41Z</time>
      </trkpt>
      <trkpt lat="43.09999" lon="1.6907">
        <ele>329.2</ele>
        <time>2019-02-13T11:39:39Z</time>
      </trkpt>
      <trkpt lat="43.09994" lon="1.69081">
        <ele>329.1</ele>
        <time>2019-02-13T11:39:37Z</time>
      </trkpt>
      <trkpt lat="43.09988" lon="1.69092">
        <ele>329</ele>
        <time>2019-02-13T11:39:35Z</time>
      </trkpt>
      <trkpt lat="43.09982" lon="1.69103">
        <ele>328.9</ele>
        <time>2019-02-13T11:39:33Z</time>
      </trkpt>
      <trkpt lat="43.09977" lon="1.69114">
        <ele>328.9</ele>
        <time>2019-02-13T11:39:31Z</time>
      </trkpt>
      <trkpt lat="43.09972" lon="1.69126">
        <ele>328.8</ele>
        <time>2019-02-13T11:39:29Z</time>
      </trkpt>
      <trkpt lat="43.09966" lon="1.69137">
        <ele>328.7</ele>
        <time>2019-02-13T11:39:27Z</time>
      </trkpt>
      <trkpt lat="43.09962" lon="1.69148">
        <ele>328.7</ele>
        <time>2019-02-13T11:39:25Z</time>
      </trkpt>
      <trkpt lat="43.09957" lon="1.6916">
        <ele>328.6</ele>
        <time>2019-02-13T11:39:23Z</time>
      </trkpt>
      <trkpt lat="43.09952" lon="1.69172">
        <ele>328.6</ele>
        <time>2019-02-13T11:39:21Z</time>
      </trkpt>
      <trkpt lat="43.09948" lon="1.69185">
        <ele>328.6</ele>
        <time>2019-02-13T11:39:19Z</time>
      </trkpt>
      <trkpt lat="43.09944" lon="1.69197">
        <ele>328.6</ele>
        <time>2019-02-13T11:39:17Z</time>
      </trkpt>
      <trkpt lat="43.0994" lon="1.69211">
        <ele>328.6</ele>
        <time>2019-02-13T11:39:15Z</time>
      </trkpt>
      <trkpt lat="43.09935" lon="1.69225">
        <ele>328.6</ele>
        <time>2019-02-13T11:39:13Z</time>
      </trkpt>
      <trkpt lat="43.09931" lon="1.69241">
        <ele>328.7</ele>
        <time>2019-02-13T11:39:11Z</time>
      </trkpt>
      <trkpt lat="43.09926" lon="1.69257">
        <ele>328.8</ele>
        <time>2019-02-13T11:39:09Z</time>
      </trkpt>
      <trkpt lat="43.09921" lon="1.69274">
        <ele>328.8</ele>
        <time>2019-02-13T11:39:07Z</time>
      </trkpt>
      <trkpt lat="43.09916" lon="1.69293">
        <ele>328.9</ele>
        <time>2019-02-13T11:39:05Z</time>
      </trkpt>
      <trkpt lat="43.09912" lon="1.69313">
        <ele>328.9</ele>
        <time>2019-02-13T11:39:03Z</time>
      </trkpt>
      <trkpt lat="43.09906" lon="1.69332">
        <ele>329</ele>
        <time>2019-02-13T11:39:01Z</time>
      </trkpt>
      <trkpt lat="43.09899" lon="1.69351">
        <ele>329.2</ele>
        <time>2019-02-13T11:38:59Z</time>
      </trkpt>
      <trkpt lat="43.09889" lon="1.69366">
        <ele>329.3</ele>
        <time>2019-02-13T11:38:57Z</time>
      </trkpt>
      <trkpt lat="43.09878" lon="1.6938">
        <ele>329.5</ele>
        <time>2019-02-13T11:38:55Z</time>
      </trkpt>
      <trkpt lat="43.09871" lon="1.694">
        <ele>329.5</ele>
        <time>2019-02-13T11:38:53Z</time>
      </trkpt>
      <trkpt lat="43.09868" lon="1.69421">
        <ele>329.6</ele>
        <time>2019-02-13T11:38:51Z</time>
      </trkpt>
      <trkpt lat="43.09864" lon="1.69442">
        <ele>329.6</ele>
        <time>2019-02-13T11:38:49Z</time>
      </trkpt>
      <trkpt lat="43.0986" lon="1.6946">
        <ele>329.6</ele>
        <time>2019-02-13T11:38:47Z</time>
      </trkpt>
      <trkpt lat="43.09857" lon="1.69478">
        <ele>329.5</ele>
        <time>2019-02-13T11:38:45Z</time>
      </trkpt>
      <trkpt lat="43.09856" lon="1.69496">
        <ele>329.5</ele>
        <time>2019-02-13T11:38:43Z</time>
      </trkpt>
      <trkpt lat="43.09853" lon="1.69513">
        <ele>329.5</ele>
        <time>2019-02-13T11:38:41Z</time>
      </trkpt>
      <trkpt lat="43.09849" lon="1.6953">
        <ele>329.4</ele>
        <time>2019-02-13T11:38:39Z</time>
      </trkpt>
      <trkpt lat="43.09846" lon="1.69548">
        <ele>329.4</ele>
        <time>2019-02-13T11:38:37Z</time>
      </trkpt>
      <trkpt lat="43.09843" lon="1.69566">
        <ele>329.4</ele>
        <time>2019-02-13T11:38:35Z</time>
      </trkpt>
      <trkpt lat="43.09839" lon="1.69584">
        <ele>329.4</ele>
        <time>2019-02-13T11:38:33Z</time>
      </trkpt>
      <trkpt lat="43.09835" lon="1.69602">
        <ele>329.3</ele>
        <time>2019-02-13T11:38:31Z</time>
      </trkpt>
      <trkpt lat="43.09832" lon="1.69619">
        <ele>329.2</ele>
        <time>2019-02-13T11:38:29Z</time>
      </trkpt>
      <trkpt lat="43.09829" lon="1.69636">
        <ele>329.1</ele>
        <time>2019-02-13T11:38:27Z</time>
      </trkpt>
      <trkpt lat="43.09826" lon="1.69652">
        <ele>329</ele>
        <time>2019-02-13T11:38:25Z</time>
      </trkpt>
      <trkpt lat="43.09824" lon="1.69667">
        <ele>329</ele>
        <time>2019-02-13T11:38:23Z</time>
      </trkpt>
      <trkpt lat="43.09821" lon="1.69682">
        <ele>328.9</ele>
        <time>2019-02-13T11:38:21Z</time>
      </trkpt>
      <trkpt lat="43.09819" lon="1.69697">
        <ele>328.8</ele>
        <time>2019-02-13T11:38:19Z</time>
      </trkpt>
      <trkpt lat="43.09816" lon="1.69711">
        <ele>328.7</ele>
        <time>2019-02-13T11:38:17Z</time>
      </trkpt>
      <trkpt lat="43.09814" lon="1.69724">
        <ele>328.7</ele>
        <time>2019-02-13T11:38:15Z</time>
      </trkpt>
      <trkpt lat="43.09812" lon="1.69737">
        <ele>328.6</ele>
        <time>2019-02-13T11:38:13Z</time>
      </trkpt>
      <trkpt lat="43.09813" lon="1.6975">
        <ele>328.5</ele>
        <time>2019-02-13T11:38:11Z</time>
      </trkpt>
      <trkpt lat="43.09821" lon="1.69758">
        <ele>328.5</ele>
        <time>2019-02-13T11:38:09Z</time>
      </trkpt>
      <trkpt lat="43.0983" lon="1.69762">
        <ele>328.4</ele>
        <time>2019-02-13T11:38:07Z</time>
      </trkpt>
      <trkpt lat="43.09839" lon="1.69765">
        <ele>328.3</ele>
        <time>2019-02-13T11:38:05Z</time>
      </trkpt>
      <trkpt lat="43.09849" lon="1.69769">
        <ele>328.3</ele>
        <time>2019-02-13T11:38:03Z</time>
      </trkpt>
      <trkpt lat="43.09859" lon="1.69773">
        <ele>328.2</ele>
        <time>2019-02-13T11:38:01Z</time>
      </trkpt>
      <trkpt lat="43.09869" lon="1.69776">
        <ele>328.1</ele>
        <time>2019-02-13T11:37:59Z</time>
      </trkpt>
      <trkpt lat="43.09878" lon="1.69785">
        <ele>328.1</ele>
        <time>2019-02-13T11:37:57Z</time>
      </trkpt>
      <trkpt lat="43.09883" lon="1.69797">
        <ele>328.2</ele>
        <time>2019-02-13T11:37:55Z</time>
      </trkpt>
      <trkpt lat="43.09885" lon="1.69812">
        <ele>328.2</ele>
        <time>2019-02-13T11:37:53Z</time>
      </trkpt>
      <trkpt lat="43.09886" lon="1.69827">
        <ele>328.2</ele>
        <time>2019-02-13T11:37:51Z</time>
      </trkpt>
      <trkpt lat="43.09887" lon="1.69842">
        <ele>328.2</ele>
        <time>2019-02-13T11:37:49Z</time>
      </trkpt>
      <trkpt lat="43.09888" lon="1.69856">
        <ele>328.2</ele>
        <time>2019-02-13T11:37:47Z</time>
      </trkpt>
      <trkpt lat="43.09889" lon="1.6987">
        <ele>328.2</ele>
        <time>2019-02-13T11:37:45Z</time>
      </trkpt>
      <trkpt lat="43.0989" lon="1.69884">
        <ele>328.2</ele>
        <time>2019-02-13T11:37:43Z</time>
      </trkpt>
      <trkpt lat="43.09891" lon="1.69899">
        <ele>328.2</ele>
        <time>2019-02-13T11:37:41Z</time>
      </trkpt>
      <trkpt lat="43.09892" lon="1.69913">
        <ele>328.2</ele>
        <time>2019-02-13T11:37:39Z</time>
      </trkpt>
      <trkpt lat="43.09894" lon="1.69928">
        <ele>328.1</ele>
        <time>2019-02-13T11:37:37Z</time>
      </trkpt>
      <trkpt lat="43.09894" lon="1.69943">
        <ele>328</ele>
        <time>2019-02-13T11:37:35Z</time>
      </trkpt>
      <trkpt lat="43.09895" lon="1.69958">
        <ele>327.9</ele>
        <time>2019-02-13T11:37:33Z</time>
      </trkpt>
      <trkpt lat="43.09897" lon="1.69973">
        <ele>327.7</ele>
        <time>2019-02-13T11:37:31Z</time>
      </trkpt>
      <trkpt lat="43.09897" lon="1.69988">
        <ele>327.6</ele>
        <time>2019-02-13T11:37:29Z</time>
      </trkpt>
      <trkpt lat="43.09898" lon="1.70003">
        <ele>327.5</ele>
        <time>2019-02-13T11:37:27Z</time>
      </trkpt>
      <trkpt lat="43.09899" lon="1.70019">
        <ele>327.3</ele>
        <time>2019-02-13T11:37:25Z</time>
      </trkpt>
      <trkpt lat="43.099" lon="1.70034">
        <ele>327.2</ele>
        <time>2019-02-13T11:37:23Z</time>
      </trkpt>
      <trkpt lat="43.09901" lon="1.70051">
        <ele>327.1</ele>
        <time>2019-02-13T11:37:21Z</time>
      </trkpt>
      <trkpt lat="43.09903" lon="1.70067">
        <ele>327</ele>
        <time>2019-02-13T11:37:19Z</time>
      </trkpt>
      <trkpt lat="43.09904" lon="1.70082">
        <ele>326.9</ele>
        <time>2019-02-13T11:37:17Z</time>
      </trkpt>
      <trkpt lat="43.09905" lon="1.70098">
        <ele>326.8</ele>
        <time>2019-02-13T11:37:15Z</time>
      </trkpt>
      <trkpt lat="43.09906" lon="1.70115">
        <ele>326.7</ele>
        <time>2019-02-13T11:37:13Z</time>
      </trkpt>
      <trkpt lat="43.09907" lon="1.7013">
        <ele>326.7</ele>
        <time>2019-02-13T11:37:11Z</time>
      </trkpt>
      <trkpt lat="43.09908" lon="1.70146">
        <ele>326.7</ele>
        <time>2019-02-13T11:37:09Z</time>
      </trkpt>
      <trkpt lat="43.0991" lon="1.70162">
        <ele>326.7</ele>
        <time>2019-02-13T11:37:07Z</time>
      </trkpt>
      <trkpt lat="43.09912" lon="1.70178">
        <ele>326.8</ele>
        <time>2019-02-13T11:37:05Z</time>
      </trkpt>
      <trkpt lat="43.09914" lon="1.70194">
        <ele>326.8</ele>
        <time>2019-02-13T11:37:03Z</time>
      </trkpt>
      <trkpt lat="43.09915" lon="1.70211">
        <ele>326.8</ele>
        <time>2019-02-13T11:37:01Z</time>
      </trkpt>
      <trkpt lat="43.09917" lon="1.70228">
        <ele>326.9</ele>
        <time>2019-02-13T11:36:59Z</time>
      </trkpt>
      <trkpt lat="43.09918" lon="1.70246">
        <ele>327</ele>
        <time>2019-02-13T11:36:57Z</time>
      </trkpt>
      <trkpt lat="43.0992" lon="1.70264">
        <ele>327</ele>
        <time>2019-02-13T11:36:55Z</time>
      </trkpt>
      <trkpt lat="43.09921" lon="1.70283">
        <ele>327.1</ele>
        <time>2019-02-13T11:36:53Z</time>
      </trkpt>
      <trkpt lat="43.09923" lon="1.70303">
        <ele>327.2</ele>
        <time>2019-02-13T11:36:51Z</time>
      </trkpt>
      <trkpt lat="43.09924" lon="1.70324">
        <ele>327.4</ele>
        <time>2019-02-13T11:36:49Z</time>
      </trkpt>
      <trkpt lat="43.09926" lon="1.70345">
        <ele>327.5</ele>
        <time>2019-02-13T11:36:47Z</time>
      </trkpt>
      <trkpt lat="43.09928" lon="1.70365">
        <ele>327.7</ele>
        <time>2019-02-13T11:36:45Z</time>
      </trkpt>
      <trkpt lat="43.09931" lon="1.70386">
        <ele>327.8</ele>
        <time>2019-02-13T11:36:43Z</time>
      </trkpt>
      <trkpt lat="43.09934" lon="1.70406">
        <ele>327.8</ele>
        <time>2019-02-13T11:36:41Z</time>
      </trkpt>
      <trkpt lat="43.09935" lon="1.70426">
        <ele>327.9</ele>
        <time>2019-02-13T11:36:39Z</time>
      </trkpt>
      <trkpt lat="43.09936" lon="1.70446">
        <ele>328</ele>
        <time>2019-02-13T11:36:37Z</time>
      </trkpt>
      <trkpt lat="43.09937" lon="1.70465">
        <ele>328.1</ele>
        <time>2019-02-13T11:36:35Z</time>
      </trkpt>
      <trkpt lat="43.09938" lon="1.70483">
        <ele>328.1</ele>
        <time>2019-02-13T11:36:33Z</time>
      </trkpt>
      <trkpt lat="43.0994" lon="1.70501">
        <ele>328.2</ele>
        <time>2019-02-13T11:36:31Z</time>
      </trkpt>
      <trkpt lat="43.09941" lon="1.70518">
        <ele>328.2</ele>
        <time>2019-02-13T11:36:29Z</time>
      </trkpt>
      <trkpt lat="43.09943" lon="1.70535">
        <ele>328.2</ele>
        <time>2019-02-13T11:36:27Z</time>
      </trkpt>
      <trkpt lat="43.09944" lon="1.70551">
        <ele>328.2</ele>
        <time>2019-02-13T11:36:25Z</time>
      </trkpt>
      <trkpt lat="43.09945" lon="1.70567">
        <ele>328.2</ele>
        <time>2019-02-13T11:36:23Z</time>
      </trkpt>
      <trkpt lat="43.09946" lon="1.70582">
        <ele>328.1</ele>
        <time>2019-02-13T11:36:21Z</time>
      </trkpt>
      <trkpt lat="43.09947" lon="1.70597">
        <ele>328</ele>
        <time>2019-02-13T11:36:19Z</time>
      </trkpt>
      <trkpt lat="43.09949" lon="1.70613">
        <ele>327.9</ele>
        <time>2019-02-13T11:36:17Z</time>
      </trkpt>
      <trkpt lat="43.09951" lon="1.70629">
        <ele>327.8</ele>
        <time>2019-02-13T11:36:15Z</time>
      </trkpt>
      <trkpt lat="43.09952" lon="1.70645">
        <ele>327.7</ele>
        <time>2019-02-13T11:36:13Z</time>
      </trkpt>
      <trkpt lat="43.09954" lon="1.70662">
        <ele>327.5</ele>
        <time>2019-02-13T11:36:11Z</time>
      </trkpt>
      <trkpt lat="43.09956" lon="1.70678">
        <ele>327.4</ele>
        <time>2019-02-13T11:36:09Z</time>
      </trkpt>
      <trkpt lat="43.09957" lon="1.70695">
        <ele>327.2</ele>
        <time>2019-02-13T11:36:07Z</time>
      </trkpt>
      <trkpt lat="43.09958" lon="1.70712">
        <ele>326.9</ele>
        <time>2019-02-13T11:36:05Z</time>
      </trkpt>
      <trkpt lat="43.0996" lon="1.7073">
        <ele>326.8</ele>
        <time>2019-02-13T11:36:03Z</time>
      </trkpt>
      <trkpt lat="43.0996" lon="1.70747">
        <ele>326.8</ele>
        <time>2019-02-13T11:36:01Z</time>
      </trkpt>
      <trkpt lat="43.09961" lon="1.70764">
        <ele>326.7</ele>
        <time>2019-02-13T11:35:59Z</time>
      </trkpt>
      <trkpt lat="43.09962" lon="1.7078">
        <ele>326.7</ele>
        <time>2019-02-13T11:35:57Z</time>
      </trkpt>
      <trkpt lat="43.09965" lon="1.70796">
        <ele>327</ele>
        <time>2019-02-13T11:35:55Z</time>
      </trkpt>
      <trkpt lat="43.09966" lon="1.70812">
        <ele>327.3</ele>
        <time>2019-02-13T11:35:53Z</time>
      </trkpt>
      <trkpt lat="43.09966" lon="1.70828">
        <ele>327.4</ele>
        <time>2019-02-13T11:35:51Z</time>
      </trkpt>
      <trkpt lat="43.09968" lon="1.70844">
        <ele>327.4</ele>
        <time>2019-02-13T11:35:49Z</time>
      </trkpt>
      <trkpt lat="43.09968" lon="1.70859">
        <ele>327.4</ele>
        <time>2019-02-13T11:35:47Z</time>
      </trkpt>
      <trkpt lat="43.09969" lon="1.70874">
        <ele>327.5</ele>
        <time>2019-02-13T11:35:45Z</time>
      </trkpt>
      <trkpt lat="43.0997" lon="1.70889">
        <ele>327.5</ele>
        <time>2019-02-13T11:35:43Z</time>
      </trkpt>
      <trkpt lat="43.09971" lon="1.70903">
        <ele>327.6</ele>
        <time>2019-02-13T11:35:41Z</time>
      </trkpt>
      <trkpt lat="43.09973" lon="1.70917">
        <ele>327.5</ele>
        <time>2019-02-13T11:35:39Z</time>
      </trkpt>
      <trkpt lat="43.09974" lon="1.7093">
        <ele>327.5</ele>
        <time>2019-02-13T11:35:37Z</time>
      </trkpt>
      <trkpt lat="43.09974" lon="1.70944">
        <ele>327.4</ele>
        <time>2019-02-13T11:35:35Z</time>
      </trkpt>
      <trkpt lat="43.09975" lon="1.70957">
        <ele>327.3</ele>
        <time>2019-02-13T11:35:33Z</time>
      </trkpt>
      <trkpt lat="43.09975" lon="1.7097">
        <ele>327.3</ele>
        <time>2019-02-13T11:35:31Z</time>
      </trkpt>
      <trkpt lat="43.09976" lon="1.70982">
        <ele>327.3</ele>
        <time>2019-02-13T11:35:29Z</time>
      </trkpt>
      <trkpt lat="43.09977" lon="1.70995">
        <ele>327.2</ele>
        <time>2019-02-13T11:35:27Z</time>
      </trkpt>
      <trkpt lat="43.09978" lon="1.71009">
        <ele>327.4</ele>
        <time>2019-02-13T11:35:25Z</time>
      </trkpt>
      <trkpt lat="43.09979" lon="1.71021">
        <ele>327.7</ele>
        <time>2019-02-13T11:35:23Z</time>
      </trkpt>
      <trkpt lat="43.09981" lon="1.71034">
        <ele>328</ele>
        <time>2019-02-13T11:35:21Z</time>
      </trkpt>
      <trkpt lat="43.09983" lon="1.71046">
        <ele>328.3</ele>
        <time>2019-02-13T11:35:19Z</time>
      </trkpt>
      <trkpt lat="43.09986" lon="1.71058">
        <ele>328.5</ele>
        <time>2019-02-13T11:35:17Z</time>
      </trkpt>
      <trkpt lat="43.09993" lon="1.71072">
        <ele>328.8</ele>
        <time>2019-02-13T11:35:14Z</time>
      </trkpt>
      <trkpt lat="43.09999" lon="1.71082">
        <ele>328.7</ele>
        <time>2019-02-13T11:35:12Z</time>
      </trkpt>
      <trkpt lat="43.10007" lon="1.71096">
        <ele>328.5</ele>
        <time>2019-02-13T11:35:09Z</time>
      </trkpt>
      <trkpt lat="43.10016" lon="1.71108">
        <ele>328.2</ele>
        <time>2019-02-13T11:35:06Z</time>
      </trkpt>
      <trkpt lat="43.10025" lon="1.71121">
        <ele>327.5</ele>
        <time>2019-02-13T11:35:03Z</time>
      </trkpt>
      <trkpt lat="43.10034" lon="1.71132">
        <ele>325.8</ele>
        <time>2019-02-13T11:35:00Z</time>
      </trkpt>
      <trkpt lat="43.10045" lon="1.7114">
        <ele>323</ele>
        <time>2019-02-13T11:34:57Z</time>
      </trkpt>
      <trkpt lat="43.10055" lon="1.71145">
        <ele>321.8</ele>
        <time>2019-02-13T11:34:54Z</time>
      </trkpt>
      <trkpt lat="43.10064" lon="1.71148">
        <ele>321.4</ele>
        <time>2019-02-13T11:34:51Z</time>
      </trkpt>
      <trkpt lat="43.10075" lon="1.71151">
        <ele>320.8</ele>
        <time>2019-02-13T11:34:47Z</time>
      </trkpt>
      <trkpt lat="43.10086" lon="1.71152">
        <ele>320.3</ele>
        <time>2019-02-13T11:34:43Z</time>
      </trkpt>
      <trkpt lat="43.10096" lon="1.71154">
        <ele>319.7</ele>
        <time>2019-02-13T11:34:39Z</time>
      </trkpt>
      <trkpt lat="43.10105" lon="1.71155">
        <ele>318.9</ele>
        <time>2019-02-13T11:34:34Z</time>
      </trkpt>
      <trkpt lat="43.10115" lon="1.71159">
        <ele>318.2</ele>
        <time>2019-02-13T11:34:29Z</time>
      </trkpt>
      <trkpt lat="43.10124" lon="1.71164">
        <ele>317.6</ele>
        <time>2019-02-13T11:34:25Z</time>
      </trkpt>
      <trkpt lat="43.10133" lon="1.71173">
        <ele>316.9</ele>
        <time>2019-02-13T11:34:20Z</time>
      </trkpt>
      <trkpt lat="43.1014" lon="1.71182">
        <ele>316.3</ele>
        <time>2019-02-13T11:34:16Z</time>
      </trkpt>
      <trkpt lat="43.10145" lon="1.71195">
        <ele>315.4</ele>
        <time>2019-02-13T11:34:11Z</time>
      </trkpt>
      <trkpt lat="43.1015" lon="1.71208">
        <ele>314.5</ele>
        <time>2019-02-13T11:34:06Z</time>
      </trkpt>
      <trkpt lat="43.10153" lon="1.71219">
        <ele>313.9</ele>
        <time>2019-02-13T11:34:02Z</time>
      </trkpt>
      <trkpt lat="43.10157" lon="1.71234">
        <ele>313.1</ele>
        <time>2019-02-13T11:33:57Z</time>
      </trkpt>
      <trkpt lat="43.1016" lon="1.71246">
        <ele>312.3</ele>
        <time>2019-02-13T11:33:52Z</time>
      </trkpt>
      <trkpt lat="43.10164" lon="1.7126">
        <ele>311.5</ele>
        <time>2019-02-13T11:33:47Z</time>
      </trkpt>
      <trkpt lat="43.10166" lon="1.71273">
        <ele>310.9</ele>
        <time>2019-02-13T11:33:43Z</time>
      </trkpt>
      <trkpt lat="43.10169" lon="1.71287">
        <ele>310.3</ele>
        <time>2019-02-13T11:33:38Z</time>
      </trkpt>
      <trkpt lat="43.10172" lon="1.71299">
        <ele>309.8</ele>
        <time>2019-02-13T11:33:34Z</time>
      </trkpt>
      <trkpt lat="43.10175" lon="1.71312">
        <ele>309.4</ele>
        <time>2019-02-13T11:33:30Z</time>
      </trkpt>
      <trkpt lat="43.10176" lon="1.71325">
        <ele>308.9</ele>
        <time>2019-02-13T11:33:25Z</time>
      </trkpt>
      <trkpt lat="43.10178" lon="1.71338">
        <ele>308.6</ele>
        <time>2019-02-13T11:33:21Z</time>
      </trkpt>
      <trkpt lat="43.10181" lon="1.71352">
        <ele>308.3</ele>
        <time>2019-02-13T11:33:17Z</time>
      </trkpt>
      <trkpt lat="43.10183" lon="1.71364">
        <ele>308.2</ele>
        <time>2019-02-13T11:33:14Z</time>
      </trkpt>
      <trkpt lat="43.10186" lon="1.71377">
        <ele>308.2</ele>
        <time>2019-02-13T11:33:08Z</time>
      </trkpt>
      <trkpt lat="43.10189" lon="1.71389">
        <ele>308.4</ele>
        <time>2019-02-13T11:33:01Z</time>
      </trkpt>
      <trkpt lat="43.10194" lon="1.71401">
        <ele>308.8</ele>
        <time>2019-02-13T11:32:57Z</time>
      </trkpt>
      <trkpt lat="43.10198" lon="1.71416">
        <ele>309.5</ele>
        <time>2019-02-13T11:32:52Z</time>
      </trkpt>
      <trkpt lat="43.102" lon="1.71428">
        <ele>310.3</ele>
        <time>2019-02-13T11:32:47Z</time>
      </trkpt>
      <trkpt lat="43.10202" lon="1.7144">
        <ele>311.1</ele>
        <time>2019-02-13T11:32:42Z</time>
      </trkpt>
      <trkpt lat="43.10192" lon="1.71445">
        <ele>311.7</ele>
        <time>2019-02-13T11:32:38Z</time>
      </trkpt>
      <trkpt lat="43.10182" lon="1.71446">
        <ele>312.2</ele>
        <time>2019-02-13T11:32:34Z</time>
      </trkpt>
      <trkpt lat="43.10171" lon="1.71449">
        <ele>312.8</ele>
        <time>2019-02-13T11:32:30Z</time>
      </trkpt>
      <trkpt lat="43.10161" lon="1.71449">
        <ele>313.3</ele>
        <time>2019-02-13T11:32:27Z</time>
      </trkpt>
      <trkpt lat="43.10151" lon="1.7145">
        <ele>313.9</ele>
        <time>2019-02-13T11:32:25Z</time>
      </trkpt>
      <trkpt lat="43.10142" lon="1.71452">
        <ele>315.6</ele>
        <time>2019-02-13T11:32:23Z</time>
      </trkpt>
      <trkpt lat="43.1013" lon="1.71454">
        <ele>317.1</ele>
        <time>2019-02-13T11:32:20Z</time>
      </trkpt>
      <trkpt lat="43.10121" lon="1.71454">
        <ele>317.2</ele>
        <time>2019-02-13T11:32:18Z</time>
      </trkpt>
      <trkpt lat="43.10112" lon="1.71452">
        <ele>317.3</ele>
        <time>2019-02-13T11:32:15Z</time>
      </trkpt>
      <trkpt lat="43.10103" lon="1.71448">
        <ele>317.3</ele>
        <time>2019-02-13T11:32:11Z</time>
      </trkpt>
      <trkpt lat="43.10093" lon="1.71444">
        <ele>317.1</ele>
        <time>2019-02-13T11:32:06Z</time>
      </trkpt>
      <trkpt lat="43.10083" lon="1.7144">
        <ele>316.7</ele>
        <time>2019-02-13T11:32:01Z</time>
      </trkpt>
      <trkpt lat="43.10074" lon="1.71437">
        <ele>316.2</ele>
        <time>2019-02-13T11:31:56Z</time>
      </trkpt>
      <trkpt lat="43.10065" lon="1.71435">
        <ele>315.4</ele>
        <time>2019-02-13T11:31:50Z</time>
      </trkpt>
      <trkpt lat="43.10056" lon="1.71434">
        <ele>314.5</ele>
        <time>2019-02-13T11:31:44Z</time>
      </trkpt>
      <trkpt lat="43.10045" lon="1.71434">
        <ele>313.5</ele>
        <time>2019-02-13T11:31:38Z</time>
      </trkpt>
      <trkpt lat="43.10036" lon="1.71432">
        <ele>312.2</ele>
        <time>2019-02-13T11:31:32Z</time>
      </trkpt>
      <trkpt lat="43.10026" lon="1.71429">
        <ele>310.8</ele>
        <time>2019-02-13T11:31:25Z</time>
      </trkpt>
      <trkpt lat="43.10016" lon="1.71427">
        <ele>310.2</ele>
        <time>2019-02-13T11:31:20Z</time>
      </trkpt>
      <trkpt lat="43.09999" lon="1.71424">
        <ele>309</ele>
        <time>2019-02-13T11:31:08Z</time>
      </trkpt>
      <trkpt lat="43.09989" lon="1.7142">
        <ele>307.4</ele>
        <time>2019-02-13T11:31:00Z</time>
      </trkpt>
      <trkpt lat="43.0998" lon="1.71415">
        <ele>306</ele>
        <time>2019-02-13T11:30:53Z</time>
      </trkpt>
      <trkpt lat="43.09969" lon="1.7141">
        <ele>305.1</ele>
        <time>2019-02-13T11:30:47Z</time>
      </trkpt>
      <trkpt lat="43.09959" lon="1.71407">
        <ele>304.8</ele>
        <time>2019-02-13T11:30:44Z</time>
      </trkpt>
      <trkpt lat="43.09946" lon="1.71401">
        <ele>304.7</ele>
        <time>2019-02-13T11:30:41Z</time>
      </trkpt>
      <trkpt lat="43.09938" lon="1.71393">
        <ele>304.4</ele>
        <time>2019-02-13T11:30:37Z</time>
      </trkpt>
      <trkpt lat="43.09929" lon="1.71384">
        <ele>304</ele>
        <time>2019-02-13T11:30:34Z</time>
      </trkpt>
      <trkpt lat="43.0992" lon="1.71374">
        <ele>303.2</ele>
        <time>2019-02-13T11:30:31Z</time>
      </trkpt>
      <trkpt lat="43.09911" lon="1.71366">
        <ele>301.9</ele>
        <time>2019-02-13T11:30:22Z</time>
      </trkpt>
      <trkpt lat="43.09902" lon="1.71366">
        <ele>300</ele>
        <time>2019-02-13T11:30:11Z</time>
      </trkpt>
      <trkpt lat="43.09887" lon="1.71365">
        <ele>297.3</ele>
        <time>2019-02-13T11:29:54Z</time>
      </trkpt>
      <trkpt lat="43.09876" lon="1.71362">
        <ele>295.8</ele>
        <time>2019-02-13T11:29:47Z</time>
      </trkpt>
      <trkpt lat="43.09867" lon="1.71362">
        <ele>295</ele>
        <time>2019-02-13T11:29:42Z</time>
      </trkpt>
      <trkpt lat="43.09856" lon="1.71368">
        <ele>294</ele>
        <time>2019-02-13T11:29:32Z</time>
      </trkpt>
      <trkpt lat="43.09853" lon="1.71382">
        <ele>293.4</ele>
        <time>2019-02-13T11:29:26Z</time>
      </trkpt>
      <trkpt lat="43.09851" lon="1.71397">
        <ele>292.6</ele>
        <time>2019-02-13T11:29:19Z</time>
      </trkpt>
      <trkpt lat="43.0985" lon="1.71409">
        <ele>292</ele>
        <time>2019-02-13T11:29:12Z</time>
      </trkpt>
      <trkpt lat="43.09846" lon="1.71421">
        <ele>291.7</ele>
        <time>2019-02-13T11:29:06Z</time>
      </trkpt>
      <trkpt lat="43.09844" lon="1.71434">
        <ele>291.5</ele>
        <time>2019-02-13T11:29:01Z</time>
      </trkpt>
      <trkpt lat="43.09841" lon="1.71447">
        <ele>291.3</ele>
        <time>2019-02-13T11:28:56Z</time>
      </trkpt>
      <trkpt lat="43.09837" lon="1.71461">
        <ele>291.3</ele>
        <time>2019-02-13T11:28:50Z</time>
      </trkpt>
      <trkpt lat="43.09833" lon="1.71475">
        <ele>291.3</ele>
        <time>2019-02-13T11:28:45Z</time>
      </trkpt>
      <trkpt lat="43.09829" lon="1.71488">
        <ele>291.3</ele>
        <time>2019-02-13T11:28:40Z</time>
      </trkpt>
      <trkpt lat="43.09826" lon="1.71501">
        <ele>291.2</ele>
        <time>2019-02-13T11:28:35Z</time>
      </trkpt>
      <trkpt lat="43.09824" lon="1.71515">
        <ele>291.1</ele>
        <time>2019-02-13T11:28:30Z</time>
      </trkpt>
      <trkpt lat="43.09821" lon="1.7153">
        <ele>290.9</ele>
        <time>2019-02-13T11:28:25Z</time>
      </trkpt>
      <trkpt lat="43.09818" lon="1.71543">
        <ele>290.7</ele>
        <time>2019-02-13T11:28:20Z</time>
      </trkpt>
      <trkpt lat="43.09814" lon="1.71556">
        <ele>290.5</ele>
        <time>2019-02-13T11:28:15Z</time>
      </trkpt>
      <trkpt lat="43.09811" lon="1.71568">
        <ele>290.3</ele>
        <time>2019-02-13T11:28:11Z</time>
      </trkpt>
      <trkpt lat="43.09809" lon="1.71583">
        <ele>290.1</ele>
        <time>2019-02-13T11:28:07Z</time>
      </trkpt>
      <trkpt lat="43.09806" lon="1.71597">
        <ele>289.9</ele>
        <time>2019-02-13T11:28:03Z</time>
      </trkpt>
      <trkpt lat="43.09804" lon="1.71612">
        <ele>289.7</ele>
        <time>2019-02-13T11:27:58Z</time>
      </trkpt>
      <trkpt lat="43.09801" lon="1.71627">
        <ele>289.5</ele>
        <time>2019-02-13T11:27:53Z</time>
      </trkpt>
      <trkpt lat="43.09797" lon="1.7164">
        <ele>289.4</ele>
        <time>2019-02-13T11:27:47Z</time>
      </trkpt>
      <trkpt lat="43.09793" lon="1.71652">
        <ele>288.9</ele>
        <time>2019-02-13T11:26:53Z</time>
      </trkpt>
      <trkpt lat="43.09785" lon="1.71658">
        <ele>288.9</ele>
        <time>2019-02-13T11:26:50Z</time>
      </trkpt>
      <trkpt lat="43.09776" lon="1.71671">
        <ele>289</ele>
        <time>2019-02-13T11:26:47Z</time>
      </trkpt>
      <trkpt lat="43.09771" lon="1.71682">
        <ele>289</ele>
        <time>2019-02-13T11:26:45Z</time>
      </trkpt>
      <trkpt lat="43.09765" lon="1.71694">
        <ele>289.1</ele>
        <time>2019-02-13T11:26:43Z</time>
      </trkpt>
      <trkpt lat="43.09759" lon="1.71706">
        <ele>289.1</ele>
        <time>2019-02-13T11:26:41Z</time>
      </trkpt>
      <trkpt lat="43.09752" lon="1.71719">
        <ele>289.1</ele>
        <time>2019-02-13T11:26:39Z</time>
      </trkpt>
      <trkpt lat="43.09745" lon="1.71732">
        <ele>289.1</ele>
        <time>2019-02-13T11:26:37Z</time>
      </trkpt>
      <trkpt lat="43.09737" lon="1.71744">
        <ele>289.1</ele>
        <time>2019-02-13T11:26:35Z</time>
      </trkpt>
      <trkpt lat="43.09729" lon="1.71756">
        <ele>289.2</ele>
        <time>2019-02-13T11:26:33Z</time>
      </trkpt>
      <trkpt lat="43.09719" lon="1.71767">
        <ele>289.2</ele>
        <time>2019-02-13T11:26:31Z</time>
      </trkpt>
      <trkpt lat="43.09709" lon="1.71778">
        <ele>289.2</ele>
        <time>2019-02-13T11:26:29Z</time>
      </trkpt>
      <trkpt lat="43.09698" lon="1.71787">
        <ele>289.4</ele>
        <time>2019-02-13T11:26:27Z</time>
      </trkpt>
      <trkpt lat="43.09686" lon="1.71793">
        <ele>289.5</ele>
        <time>2019-02-13T11:26:25Z</time>
      </trkpt>
      <trkpt lat="43.09673" lon="1.71799">
        <ele>289.7</ele>
        <time>2019-02-13T11:26:23Z</time>
      </trkpt>
      <trkpt lat="43.0966" lon="1.71804">
        <ele>290</ele>
        <time>2019-02-13T11:26:21Z</time>
      </trkpt>
      <trkpt lat="43.09646" lon="1.7181">
        <ele>290.2</ele>
        <time>2019-02-13T11:26:19Z</time>
      </trkpt>
      <trkpt lat="43.09632" lon="1.71813">
        <ele>290.5</ele>
        <time>2019-02-13T11:26:17Z</time>
      </trkpt>
      <trkpt lat="43.09618" lon="1.71815">
        <ele>290.8</ele>
        <time>2019-02-13T11:26:15Z</time>
      </trkpt>
      <trkpt lat="43.09603" lon="1.71813">
        <ele>290.9</ele>
        <time>2019-02-13T11:26:13Z</time>
      </trkpt>
      <trkpt lat="43.09588" lon="1.7181">
        <ele>291.1</ele>
        <time>2019-02-13T11:26:11Z</time>
      </trkpt>
      <trkpt lat="43.09575" lon="1.7181">
        <ele>291.3</ele>
        <time>2019-02-13T11:26:09Z</time>
      </trkpt>
      <trkpt lat="43.09563" lon="1.71814">
        <ele>291.4</ele>
        <time>2019-02-13T11:26:07Z</time>
      </trkpt>
      <trkpt lat="43.09552" lon="1.71822">
        <ele>291.6</ele>
        <time>2019-02-13T11:26:05Z</time>
      </trkpt>
      <trkpt lat="43.09545" lon="1.71832">
        <ele>291.6</ele>
        <time>2019-02-13T11:26:03Z</time>
      </trkpt>
      <trkpt lat="43.09538" lon="1.71842">
        <ele>291.7</ele>
        <time>2019-02-13T11:26:01Z</time>
      </trkpt>
      <trkpt lat="43.09531" lon="1.71852">
        <ele>291.7</ele>
        <time>2019-02-13T11:25:59Z</time>
      </trkpt>
      <trkpt lat="43.09523" lon="1.71862">
        <ele>291.8</ele>
        <time>2019-02-13T11:25:57Z</time>
      </trkpt>
      <trkpt lat="43.09516" lon="1.71871">
        <ele>291.9</ele>
        <time>2019-02-13T11:25:55Z</time>
      </trkpt>
      <trkpt lat="43.09509" lon="1.71882">
        <ele>291.9</ele>
        <time>2019-02-13T11:25:53Z</time>
      </trkpt>
      <trkpt lat="43.09501" lon="1.71893">
        <ele>292.1</ele>
        <time>2019-02-13T11:25:51Z</time>
      </trkpt>
      <trkpt lat="43.09492" lon="1.71904">
        <ele>292.2</ele>
        <time>2019-02-13T11:25:49Z</time>
      </trkpt>
      <trkpt lat="43.09482" lon="1.71916">
        <ele>292.2</ele>
        <time>2019-02-13T11:25:47Z</time>
      </trkpt>
      <trkpt lat="43.09473" lon="1.7193">
        <ele>292.1</ele>
        <time>2019-02-13T11:25:45Z</time>
      </trkpt>
      <trkpt lat="43.09464" lon="1.71944">
        <ele>292.2</ele>
        <time>2019-02-13T11:25:43Z</time>
      </trkpt>
      <trkpt lat="43.09456" lon="1.71959">
        <ele>292.2</ele>
        <time>2019-02-13T11:25:41Z</time>
      </trkpt>
      <trkpt lat="43.09449" lon="1.71974">
        <ele>292.2</ele>
        <time>2019-02-13T11:25:39Z</time>
      </trkpt>
      <trkpt lat="43.09442" lon="1.71988">
        <ele>292.2</ele>
        <time>2019-02-13T11:25:37Z</time>
      </trkpt>
      <trkpt lat="43.09432" lon="1.71999">
        <ele>292.2</ele>
        <time>2019-02-13T11:25:35Z</time>
      </trkpt>
      <trkpt lat="43.09423" lon="1.72008">
        <ele>292.2</ele>
        <time>2019-02-13T11:25:33Z</time>
      </trkpt>
      <trkpt lat="43.09413" lon="1.72013">
        <ele>292</ele>
        <time>2019-02-13T11:25:31Z</time>
      </trkpt>
      <trkpt lat="43.09403" lon="1.72017">
        <ele>292</ele>
        <time>2019-02-13T11:25:29Z</time>
      </trkpt>
      <trkpt lat="43.09394" lon="1.7202">
        <ele>292</ele>
        <time>2019-02-13T11:25:27Z</time>
      </trkpt>
      <trkpt lat="43.09385" lon="1.72023">
        <ele>291.8</ele>
        <time>2019-02-13T11:25:25Z</time>
      </trkpt>
      <trkpt lat="43.09375" lon="1.72026">
        <ele>291.6</ele>
        <time>2019-02-13T11:25:23Z</time>
      </trkpt>
      <trkpt lat="43.09366" lon="1.72029">
        <ele>291.4</ele>
        <time>2019-02-13T11:25:21Z</time>
      </trkpt>
      <trkpt lat="43.09353" lon="1.72034">
        <ele>291</ele>
        <time>2019-02-13T11:25:18Z</time>
      </trkpt>
      <trkpt lat="43.09344" lon="1.7204">
        <ele>290.9</ele>
        <time>2019-02-13T11:25:15Z</time>
      </trkpt>
      <trkpt lat="43.09333" lon="1.72041">
        <ele>290.8</ele>
        <time>2019-02-13T11:25:02Z</time>
      </trkpt>
      <trkpt lat="43.09323" lon="1.72045">
        <ele>290.8</ele>
        <time>2019-02-13T11:24:58Z</time>
      </trkpt>
      <trkpt lat="43.0931" lon="1.72049">
        <ele>290.7</ele>
        <time>2019-02-13T11:24:55Z</time>
      </trkpt>
      <trkpt lat="43.09301" lon="1.72053">
        <ele>290.7</ele>
        <time>2019-02-13T11:24:53Z</time>
      </trkpt>
      <trkpt lat="43.09292" lon="1.72056">
        <ele>290.7</ele>
        <time>2019-02-13T11:24:51Z</time>
      </trkpt>
      <trkpt lat="43.09281" lon="1.7206">
        <ele>290.7</ele>
        <time>2019-02-13T11:24:49Z</time>
      </trkpt>
      <trkpt lat="43.0927" lon="1.72062">
        <ele>290.7</ele>
        <time>2019-02-13T11:24:47Z</time>
      </trkpt>
      <trkpt lat="43.09259" lon="1.72063">
        <ele>290.7</ele>
        <time>2019-02-13T11:24:45Z</time>
      </trkpt>
      <trkpt lat="43.09246" lon="1.72064">
        <ele>290.8</ele>
        <time>2019-02-13T11:24:43Z</time>
      </trkpt>
      <trkpt lat="43.09234" lon="1.72063">
        <ele>290.9</ele>
        <time>2019-02-13T11:24:41Z</time>
      </trkpt>
      <trkpt lat="43.09222" lon="1.72062">
        <ele>291</ele>
        <time>2019-02-13T11:24:39Z</time>
      </trkpt>
      <trkpt lat="43.09209" lon="1.72062">
        <ele>291.1</ele>
        <time>2019-02-13T11:24:37Z</time>
      </trkpt>
      <trkpt lat="43.09197" lon="1.72061">
        <ele>291.4</ele>
        <time>2019-02-13T11:24:35Z</time>
      </trkpt>
      <trkpt lat="43.09184" lon="1.72061">
        <ele>291.6</ele>
        <time>2019-02-13T11:24:33Z</time>
      </trkpt>
      <trkpt lat="43.09171" lon="1.72062">
        <ele>291.8</ele>
        <time>2019-02-13T11:24:31Z</time>
      </trkpt>
      <trkpt lat="43.09157" lon="1.72061">
        <ele>292</ele>
        <time>2019-02-13T11:24:29Z</time>
      </trkpt>
      <trkpt lat="43.09143" lon="1.72061">
        <ele>292.2</ele>
        <time>2019-02-13T11:24:27Z</time>
      </trkpt>
      <trkpt lat="43.09128" lon="1.72062">
        <ele>292.5</ele>
        <time>2019-02-13T11:24:25Z</time>
      </trkpt>
      <trkpt lat="43.09113" lon="1.72062">
        <ele>292.9</ele>
        <time>2019-02-13T11:24:23Z</time>
      </trkpt>
      <trkpt lat="43.09097" lon="1.72062">
        <ele>293.4</ele>
        <time>2019-02-13T11:24:21Z</time>
      </trkpt>
      <trkpt lat="43.09082" lon="1.72063">
        <ele>293.9</ele>
        <time>2019-02-13T11:24:19Z</time>
      </trkpt>
      <trkpt lat="43.09067" lon="1.72067">
        <ele>294.7</ele>
        <time>2019-02-13T11:24:17Z</time>
      </trkpt>
      <trkpt lat="43.09052" lon="1.7207">
        <ele>295.5</ele>
        <time>2019-02-13T11:24:15Z</time>
      </trkpt>
      <trkpt lat="43.09038" lon="1.72074">
        <ele>296.2</ele>
        <time>2019-02-13T11:24:13Z</time>
      </trkpt>
      <trkpt lat="43.09024" lon="1.72077">
        <ele>296.8</ele>
        <time>2019-02-13T11:24:11Z</time>
      </trkpt>
      <trkpt lat="43.0901" lon="1.7208">
        <ele>297.4</ele>
        <time>2019-02-13T11:24:09Z</time>
      </trkpt>
      <trkpt lat="43.08998" lon="1.72079">
        <ele>297.7</ele>
        <time>2019-02-13T11:24:06Z</time>
      </trkpt>
      <trkpt lat="43.08988" lon="1.72084">
        <ele>297.6</ele>
        <time>2019-02-13T11:24:03Z</time>
      </trkpt>
      <trkpt lat="43.08984" lon="1.72099">
        <ele>297.5</ele>
        <time>2019-02-13T11:24:00Z</time>
      </trkpt>
      <trkpt lat="43.08979" lon="1.72113">
        <ele>297.4</ele>
        <time>2019-02-13T11:23:57Z</time>
      </trkpt>
      <trkpt lat="43.08974" lon="1.72126">
        <ele>297.2</ele>
        <time>2019-02-13T11:23:54Z</time>
      </trkpt>
      <trkpt lat="43.08969" lon="1.7214">
        <ele>296.4</ele>
        <time>2019-02-13T11:23:51Z</time>
      </trkpt>
      <trkpt lat="43.08965" lon="1.72156">
        <ele>295.1</ele>
        <time>2019-02-13T11:23:48Z</time>
      </trkpt>
      <trkpt lat="43.08959" lon="1.7217">
        <ele>294.1</ele>
        <time>2019-02-13T11:23:45Z</time>
      </trkpt>
      <trkpt lat="43.08948" lon="1.72168">
        <ele>293.6</ele>
        <time>2019-02-13T11:23:42Z</time>
      </trkpt>
      <trkpt lat="43.0894" lon="1.72164">
        <ele>293.1</ele>
        <time>2019-02-13T11:23:40Z</time>
      </trkpt>
      <trkpt lat="43.0893" lon="1.72159">
        <ele>292.8</ele>
        <time>2019-02-13T11:23:38Z</time>
      </trkpt>
      <trkpt lat="43.08921" lon="1.72155">
        <ele>292.8</ele>
        <time>2019-02-13T11:23:36Z</time>
      </trkpt>
      <trkpt lat="43.08911" lon="1.72151">
        <ele>292.9</ele>
        <time>2019-02-13T11:23:34Z</time>
      </trkpt>
      <trkpt lat="43.08903" lon="1.72145">
        <ele>293</ele>
        <time>2019-02-13T11:23:32Z</time>
      </trkpt>
      <trkpt lat="43.08895" lon="1.72138">
        <ele>293.2</ele>
        <time>2019-02-13T11:23:30Z</time>
      </trkpt>
      <trkpt lat="43.08883" lon="1.72129">
        <ele>293.5</ele>
        <time>2019-02-13T11:23:27Z</time>
      </trkpt>
      <trkpt lat="43.08875" lon="1.72122">
        <ele>293.7</ele>
        <time>2019-02-13T11:23:25Z</time>
      </trkpt>
      <trkpt lat="43.08865" lon="1.72113">
        <ele>293.6</ele>
        <time>2019-02-13T11:23:22Z</time>
      </trkpt>
      <trkpt lat="43.08858" lon="1.72103">
        <ele>293.3</ele>
        <time>2019-02-13T11:23:19Z</time>
      </trkpt>
      <trkpt lat="43.08849" lon="1.72095">
        <ele>292.5</ele>
        <time>2019-02-13T11:23:16Z</time>
      </trkpt>
      <trkpt lat="43.0884" lon="1.72088">
        <ele>292</ele>
        <time>2019-02-13T11:23:13Z</time>
      </trkpt>
      <trkpt lat="43.08831" lon="1.72083">
        <ele>291.8</ele>
        <time>2019-02-13T11:23:10Z</time>
      </trkpt>
      <trkpt lat="43.08821" lon="1.72076">
        <ele>291.5</ele>
        <time>2019-02-13T11:23:06Z</time>
      </trkpt>
      <trkpt lat="43.0881" lon="1.72072">
        <ele>291.2</ele>
        <time>2019-02-13T11:23:02Z</time>
      </trkpt>
      <trkpt lat="43.08801" lon="1.72078">
        <ele>290.8</ele>
        <time>2019-02-13T11:22:59Z</time>
      </trkpt>
      <trkpt lat="43.08794" lon="1.7209">
        <ele>290.1</ele>
        <time>2019-02-13T11:22:57Z</time>
      </trkpt>
      <trkpt lat="43.08785" lon="1.72102">
        <ele>289.5</ele>
        <time>2019-02-13T11:22:55Z</time>
      </trkpt>
      <trkpt lat="43.08774" lon="1.72114">
        <ele>289.2</ele>
        <time>2019-02-13T11:22:53Z</time>
      </trkpt>
      <trkpt lat="43.08761" lon="1.72117">
        <ele>288.8</ele>
        <time>2019-02-13T11:22:51Z</time>
      </trkpt>
      <trkpt lat="43.08747" lon="1.72114">
        <ele>288.8</ele>
        <time>2019-02-13T11:22:49Z</time>
      </trkpt>
      <trkpt lat="43.08734" lon="1.72108">
        <ele>289.4</ele>
        <time>2019-02-13T11:22:47Z</time>
      </trkpt>
      <trkpt lat="43.08721" lon="1.72102">
        <ele>290.6</ele>
        <time>2019-02-13T11:22:45Z</time>
      </trkpt>
      <trkpt lat="43.08711" lon="1.72093">
        <ele>291.7</ele>
        <time>2019-02-13T11:22:43Z</time>
      </trkpt>
      <trkpt lat="43.08701" lon="1.72084">
        <ele>292.7</ele>
        <time>2019-02-13T11:22:41Z</time>
      </trkpt>
      <trkpt lat="43.08692" lon="1.72073">
        <ele>293.5</ele>
        <time>2019-02-13T11:22:39Z</time>
      </trkpt>
      <trkpt lat="43.08683" lon="1.72063">
        <ele>294</ele>
        <time>2019-02-13T11:22:37Z</time>
      </trkpt>
      <trkpt lat="43.08675" lon="1.72052">
        <ele>294.2</ele>
        <time>2019-02-13T11:22:35Z</time>
      </trkpt>
      <trkpt lat="43.08667" lon="1.72043">
        <ele>294.4</ele>
        <time>2019-02-13T11:22:33Z</time>
      </trkpt>
      <trkpt lat="43.08656" lon="1.72033">
        <ele>294.5</ele>
        <time>2019-02-13T11:22:30Z</time>
      </trkpt>
      <trkpt lat="43.08645" lon="1.72026">
        <ele>294.5</ele>
        <time>2019-02-13T11:22:27Z</time>
      </trkpt>
      <trkpt lat="43.08635" lon="1.7202">
        <ele>294.5</ele>
        <time>2019-02-13T11:22:24Z</time>
      </trkpt>
      <trkpt lat="43.08626" lon="1.72019">
        <ele>294.4</ele>
        <time>2019-02-13T11:22:21Z</time>
      </trkpt>
      <trkpt lat="43.0862" lon="1.72034">
        <ele>294.3</ele>
        <time>2019-02-13T11:22:17Z</time>
      </trkpt>
      <trkpt lat="43.08615" lon="1.72048">
        <ele>294.1</ele>
        <time>2019-02-13T11:22:12Z</time>
      </trkpt>
      <trkpt lat="43.08609" lon="1.72059">
        <ele>293.9</ele>
        <time>2019-02-13T11:22:06Z</time>
      </trkpt>
      <trkpt lat="43.08604" lon="1.72071">
        <ele>293.7</ele>
        <time>2019-02-13T11:22:00Z</time>
      </trkpt>
      <trkpt lat="43.086" lon="1.72083">
        <ele>293.7</ele>
        <time>2019-02-13T11:21:54Z</time>
      </trkpt>
      <trkpt lat="43.08595" lon="1.72094">
        <ele>293.7</ele>
        <time>2019-02-13T11:21:49Z</time>
      </trkpt>
      <trkpt lat="43.08591" lon="1.72108">
        <ele>293.7</ele>
        <time>2019-02-13T11:21:44Z</time>
      </trkpt>
      <trkpt lat="43.08586" lon="1.72122">
        <ele>293.7</ele>
        <time>2019-02-13T11:21:39Z</time>
      </trkpt>
      <trkpt lat="43.08583" lon="1.72135">
        <ele>293.8</ele>
        <time>2019-02-13T11:21:35Z</time>
      </trkpt>
      <trkpt lat="43.08579" lon="1.72147">
        <ele>294</ele>
        <time>2019-02-13T11:21:31Z</time>
      </trkpt>
      <trkpt lat="43.08575" lon="1.72158">
        <ele>294.2</ele>
        <time>2019-02-13T11:21:28Z</time>
      </trkpt>
      <trkpt lat="43.08563" lon="1.72165">
        <ele>294.4</ele>
        <time>2019-02-13T11:21:24Z</time>
      </trkpt>
      <trkpt lat="43.08553" lon="1.72165">
        <ele>294.6</ele>
        <time>2019-02-13T11:21:21Z</time>
      </trkpt>
      <trkpt lat="43.08542" lon="1.72162">
        <ele>294.7</ele>
        <time>2019-02-13T11:21:18Z</time>
      </trkpt>
      <trkpt lat="43.08533" lon="1.72159">
        <ele>294.9</ele>
        <time>2019-02-13T11:21:15Z</time>
      </trkpt>
      <trkpt lat="43.08522" lon="1.72156">
        <ele>295.1</ele>
        <time>2019-02-13T11:21:12Z</time>
      </trkpt>
      <trkpt lat="43.08511" lon="1.72154">
        <ele>295.2</ele>
        <time>2019-02-13T11:21:09Z</time>
      </trkpt>
      <trkpt lat="43.08502" lon="1.7215">
        <ele>295.4</ele>
        <time>2019-02-13T11:21:06Z</time>
      </trkpt>
      <trkpt lat="43.08493" lon="1.72147">
        <ele>295.7</ele>
        <time>2019-02-13T11:21:02Z</time>
      </trkpt>
      <trkpt lat="43.08483" lon="1.72144">
        <ele>296.2</ele>
        <time>2019-02-13T11:20:57Z</time>
      </trkpt>
      <trkpt lat="43.08474" lon="1.72142">
        <ele>296.8</ele>
        <time>2019-02-13T11:20:52Z</time>
      </trkpt>
      <trkpt lat="43.08465" lon="1.72143">
        <ele>297.2</ele>
        <time>2019-02-13T11:20:48Z</time>
      </trkpt>
      <trkpt lat="43.08456" lon="1.72153">
        <ele>298.1</ele>
        <time>2019-02-13T11:20:37Z</time>
      </trkpt>
      <trkpt lat="43.0845" lon="1.72162">
        <ele>299</ele>
        <time>2019-02-13T11:20:28Z</time>
      </trkpt>
      <trkpt lat="43.08444" lon="1.72173">
        <ele>300.5</ele>
        <time>2019-02-13T11:20:17Z</time>
      </trkpt>
      <trkpt lat="43.08435" lon="1.72182">
        <ele>300.9</ele>
        <time>2019-02-13T11:20:13Z</time>
      </trkpt>
      <trkpt lat="43.08426" lon="1.72185">
        <ele>301.1</ele>
        <time>2019-02-13T11:20:10Z</time>
      </trkpt>
      <trkpt lat="43.08417" lon="1.72184">
        <ele>301.2</ele>
        <time>2019-02-13T11:20:07Z</time>
      </trkpt>
      <trkpt lat="43.08407" lon="1.72186">
        <ele>301.2</ele>
        <time>2019-02-13T11:20:05Z</time>
      </trkpt>
      <trkpt lat="43.08394" lon="1.72189">
        <ele>301.6</ele>
        <time>2019-02-13T11:20:02Z</time>
      </trkpt>
      <trkpt lat="43.08384" lon="1.72191">
        <ele>302.1</ele>
        <time>2019-02-13T11:20:00Z</time>
      </trkpt>
      <trkpt lat="43.08374" lon="1.72201">
        <ele>303.5</ele>
        <time>2019-02-13T11:19:57Z</time>
      </trkpt>
      <trkpt lat="43.08376" lon="1.72214">
        <ele>303.7</ele>
        <time>2019-02-13T11:19:53Z</time>
      </trkpt>
      <trkpt lat="43.0837" lon="1.72225">
        <ele>303.8</ele>
        <time>2019-02-13T11:19:50Z</time>
      </trkpt>
      <trkpt lat="43.08359" lon="1.72233">
        <ele>303.9</ele>
        <time>2019-02-13T11:19:47Z</time>
      </trkpt>
      <trkpt lat="43.0835" lon="1.72242">
        <ele>304.3</ele>
        <time>2019-02-13T11:19:45Z</time>
      </trkpt>
      <trkpt lat="43.08341" lon="1.72254">
        <ele>305</ele>
        <time>2019-02-13T11:19:43Z</time>
      </trkpt>
      <trkpt lat="43.08333" lon="1.7226">
        <ele>305.9</ele>
        <time>2019-02-13T11:19:41Z</time>
      </trkpt>
      <trkpt lat="43.08325" lon="1.72267">
        <ele>307.2</ele>
        <time>2019-02-13T11:19:39Z</time>
      </trkpt>
      <trkpt lat="43.08316" lon="1.72274">
        <ele>308.1</ele>
        <time>2019-02-13T11:19:37Z</time>
      </trkpt>
      <trkpt lat="43.08307" lon="1.72284">
        <ele>310.4</ele>
        <time>2019-02-13T11:19:35Z</time>
      </trkpt>
      <trkpt lat="43.08297" lon="1.72295">
        <ele>313</ele>
        <time>2019-02-13T11:19:33Z</time>
      </trkpt>
      <trkpt lat="43.08287" lon="1.72306">
        <ele>315.3</ele>
        <time>2019-02-13T11:19:31Z</time>
      </trkpt>
      <trkpt lat="43.08277" lon="1.72311">
        <ele>317.1</ele>
        <time>2019-02-13T11:19:29Z</time>
      </trkpt>
      <trkpt lat="43.08268" lon="1.72318">
        <ele>318.6</ele>
        <time>2019-02-13T11:19:27Z</time>
      </trkpt>
      <trkpt lat="43.08258" lon="1.72326">
        <ele>320.4</ele>
        <time>2019-02-13T11:19:25Z</time>
      </trkpt>
      <trkpt lat="43.08248" lon="1.72332">
        <ele>322.4</ele>
        <time>2019-02-13T11:19:23Z</time>
      </trkpt>
      <trkpt lat="43.08238" lon="1.7234">
        <ele>323.6</ele>
        <time>2019-02-13T11:19:21Z</time>
      </trkpt>
      <trkpt lat="43.0823" lon="1.72349">
        <ele>323.9</ele>
        <time>2019-02-13T11:19:18Z</time>
      </trkpt>
      <trkpt lat="43.08218" lon="1.72355">
        <ele>324.7</ele>
        <time>2019-02-13T11:19:15Z</time>
      </trkpt>
      <trkpt lat="43.08207" lon="1.7236">
        <ele>325.9</ele>
        <time>2019-02-13T11:19:12Z</time>
      </trkpt>
      <trkpt lat="43.08195" lon="1.72367">
        <ele>326.1</ele>
        <time>2019-02-13T11:19:09Z</time>
      </trkpt>
      <trkpt lat="43.08189" lon="1.72375">
        <ele>326.5</ele>
        <time>2019-02-13T11:19:07Z</time>
      </trkpt>
      <trkpt lat="43.08183" lon="1.7239">
        <ele>326.9</ele>
        <time>2019-02-13T11:19:04Z</time>
      </trkpt>
      <trkpt lat="43.08173" lon="1.72399">
        <ele>327.1</ele>
        <time>2019-02-13T11:19:01Z</time>
      </trkpt>
      <trkpt lat="43.08162" lon="1.72398">
        <ele>327.2</ele>
        <time>2019-02-13T11:18:58Z</time>
      </trkpt>
      <trkpt lat="43.0815" lon="1.72396">
        <ele>326.9</ele>
        <time>2019-02-13T11:18:55Z</time>
      </trkpt>
      <trkpt lat="43.0814" lon="1.72394">
        <ele>326.9</ele>
        <time>2019-02-13T11:18:52Z</time>
      </trkpt>
      <trkpt lat="43.08129" lon="1.72397">
        <ele>326.8</ele>
        <time>2019-02-13T11:18:48Z</time>
      </trkpt>
      <trkpt lat="43.08122" lon="1.72405">
        <ele>326.7</ele>
        <time>2019-02-13T11:18:44Z</time>
      </trkpt>
      <trkpt lat="43.08117" lon="1.7242">
        <ele>326.7</ele>
        <time>2019-02-13T11:18:40Z</time>
      </trkpt>
      <trkpt lat="43.08113" lon="1.72432">
        <ele>326.7</ele>
        <time>2019-02-13T11:18:37Z</time>
      </trkpt>
      <trkpt lat="43.08105" lon="1.72444">
        <ele>326.9</ele>
        <time>2019-02-13T11:18:34Z</time>
      </trkpt>
      <trkpt lat="43.08094" lon="1.72443">
        <ele>327.2</ele>
        <time>2019-02-13T11:18:31Z</time>
      </trkpt>
      <trkpt lat="43.08082" lon="1.72437">
        <ele>327.6</ele>
        <time>2019-02-13T11:18:28Z</time>
      </trkpt>
      <trkpt lat="43.0807" lon="1.72431">
        <ele>328.3</ele>
        <time>2019-02-13T11:18:25Z</time>
      </trkpt>
      <trkpt lat="43.08058" lon="1.72426">
        <ele>329.5</ele>
        <time>2019-02-13T11:18:22Z</time>
      </trkpt>
      <trkpt lat="43.08047" lon="1.7242">
        <ele>330.4</ele>
        <time>2019-02-13T11:18:19Z</time>
      </trkpt>
      <trkpt lat="43.08035" lon="1.72415">
        <ele>331.3</ele>
        <time>2019-02-13T11:18:16Z</time>
      </trkpt>
      <trkpt lat="43.08024" lon="1.72409">
        <ele>331.9</ele>
        <time>2019-02-13T11:18:13Z</time>
      </trkpt>
      <trkpt lat="43.08013" lon="1.72403">
        <ele>332.9</ele>
        <time>2019-02-13T11:18:10Z</time>
      </trkpt>
      <trkpt lat="43.08002" lon="1.72398">
        <ele>333.9</ele>
        <time>2019-02-13T11:18:07Z</time>
      </trkpt>
      <trkpt lat="43.0799" lon="1.72392">
        <ele>334.6</ele>
        <time>2019-02-13T11:18:04Z</time>
      </trkpt>
      <trkpt lat="43.07981" lon="1.72387">
        <ele>334.9</ele>
        <time>2019-02-13T11:18:02Z</time>
      </trkpt>
      <trkpt lat="43.07968" lon="1.72382">
        <ele>335.1</ele>
        <time>2019-02-13T11:17:59Z</time>
      </trkpt>
      <trkpt lat="43.07959" lon="1.72378">
        <ele>335.3</ele>
        <time>2019-02-13T11:17:57Z</time>
      </trkpt>
      <trkpt lat="43.0795" lon="1.72373">
        <ele>335.5</ele>
        <time>2019-02-13T11:17:55Z</time>
      </trkpt>
      <trkpt lat="43.07941" lon="1.72369">
        <ele>335.6</ele>
        <time>2019-02-13T11:17:53Z</time>
      </trkpt>
      <trkpt lat="43.07933" lon="1.72366">
        <ele>335.6</ele>
        <time>2019-02-13T11:17:51Z</time>
      </trkpt>
      <trkpt lat="43.0792" lon="1.7236">
        <ele>335.6</ele>
        <time>2019-02-13T11:17:48Z</time>
      </trkpt>
      <trkpt lat="43.07911" lon="1.72358">
        <ele>335.6</ele>
        <time>2019-02-13T11:17:46Z</time>
      </trkpt>
      <trkpt lat="43.07898" lon="1.72353">
        <ele>335.4</ele>
        <time>2019-02-13T11:17:43Z</time>
      </trkpt>
      <trkpt lat="43.07886" lon="1.72349">
        <ele>335.4</ele>
        <time>2019-02-13T11:17:40Z</time>
      </trkpt>
      <trkpt lat="43.07874" lon="1.72346">
        <ele>335.4</ele>
        <time>2019-02-13T11:17:37Z</time>
      </trkpt>
      <trkpt lat="43.07864" lon="1.72344">
        <ele>335.6</ele>
        <time>2019-02-13T11:17:35Z</time>
      </trkpt>
      <trkpt lat="43.07851" lon="1.72338">
        <ele>336</ele>
        <time>2019-02-13T11:17:32Z</time>
      </trkpt>
      <trkpt lat="43.0784" lon="1.72334">
        <ele>336.2</ele>
        <time>2019-02-13T11:17:29Z</time>
      </trkpt>
      <trkpt lat="43.07827" lon="1.72331">
        <ele>336.6</ele>
        <time>2019-02-13T11:17:26Z</time>
      </trkpt>
      <trkpt lat="43.07817" lon="1.72328">
        <ele>336.8</ele>
        <time>2019-02-13T11:17:24Z</time>
      </trkpt>
      <trkpt lat="43.07808" lon="1.72325">
        <ele>337</ele>
        <time>2019-02-13T11:17:22Z</time>
      </trkpt>
      <trkpt lat="43.07796" lon="1.72321">
        <ele>337.3</ele>
        <time>2019-02-13T11:17:19Z</time>
      </trkpt>
      <trkpt lat="43.07783" lon="1.72317">
        <ele>337.7</ele>
        <time>2019-02-13T11:17:16Z</time>
      </trkpt>
      <trkpt lat="43.07771" lon="1.72314">
        <ele>337.9</ele>
        <time>2019-02-13T11:17:13Z</time>
      </trkpt>
      <trkpt lat="43.07762" lon="1.72311">
        <ele>338</ele>
        <time>2019-02-13T11:17:10Z</time>
      </trkpt>
      <trkpt lat="43.07754" lon="1.72304">
        <ele>338</ele>
        <time>2019-02-13T11:17:06Z</time>
      </trkpt>
      <trkpt lat="43.07747" lon="1.72296">
        <ele>337.9</ele>
        <time>2019-02-13T11:17:02Z</time>
      </trkpt>
      <trkpt lat="43.0774" lon="1.72285">
        <ele>337.9</ele>
        <time>2019-02-13T11:16:56Z</time>
      </trkpt>
      <trkpt lat="43.07732" lon="1.72276">
        <ele>337.8</ele>
        <time>2019-02-13T11:16:50Z</time>
      </trkpt>
      <trkpt lat="43.07726" lon="1.72266">
        <ele>337.6</ele>
        <time>2019-02-13T11:16:45Z</time>
      </trkpt>
      <trkpt lat="43.07719" lon="1.72256">
        <ele>337.5</ele>
        <time>2019-02-13T11:16:41Z</time>
      </trkpt>
      <trkpt lat="43.07712" lon="1.72247">
        <ele>337.4</ele>
        <time>2019-02-13T11:16:38Z</time>
      </trkpt>
      <trkpt lat="43.07704" lon="1.72237">
        <ele>337.3</ele>
        <time>2019-02-13T11:16:35Z</time>
      </trkpt>
      <trkpt lat="43.07696" lon="1.72231">
        <ele>337</ele>
        <time>2019-02-13T11:16:33Z</time>
      </trkpt>
      <trkpt lat="43.07688" lon="1.72223">
        <ele>336.8</ele>
        <time>2019-02-13T11:16:30Z</time>
      </trkpt>
      <trkpt lat="43.07681" lon="1.72215">
        <ele>336.5</ele>
        <time>2019-02-13T11:16:28Z</time>
      </trkpt>
      <trkpt lat="43.07672" lon="1.72205">
        <ele>336.2</ele>
        <time>2019-02-13T11:16:25Z</time>
      </trkpt>
      <trkpt lat="43.07661" lon="1.72198">
        <ele>335.8</ele>
        <time>2019-02-13T11:16:22Z</time>
      </trkpt>
      <trkpt lat="43.0765" lon="1.72193">
        <ele>335.6</ele>
        <time>2019-02-13T11:16:18Z</time>
      </trkpt>
      <trkpt lat="43.0764" lon="1.72194">
        <ele>335.5</ele>
        <time>2019-02-13T11:16:14Z</time>
      </trkpt>
      <trkpt lat="43.0763" lon="1.7219">
        <ele>335.3</ele>
        <time>2019-02-13T11:16:10Z</time>
      </trkpt>
      <trkpt lat="43.07619" lon="1.72187">
        <ele>335.2</ele>
        <time>2019-02-13T11:16:07Z</time>
      </trkpt>
      <trkpt lat="43.07609" lon="1.72182">
        <ele>334.8</ele>
        <time>2019-02-13T11:16:05Z</time>
      </trkpt>
      <trkpt lat="43.07598" lon="1.72173">
        <ele>334.7</ele>
        <time>2019-02-13T11:16:02Z</time>
      </trkpt>
      <trkpt lat="43.07588" lon="1.72163">
        <ele>334.3</ele>
        <time>2019-02-13T11:15:59Z</time>
      </trkpt>
      <trkpt lat="43.0758" lon="1.72156">
        <ele>334.1</ele>
        <time>2019-02-13T11:15:57Z</time>
      </trkpt>
      <trkpt lat="43.07571" lon="1.72148">
        <ele>333.6</ele>
        <time>2019-02-13T11:15:55Z</time>
      </trkpt>
      <trkpt lat="43.07562" lon="1.72141">
        <ele>333.2</ele>
        <time>2019-02-13T11:15:53Z</time>
      </trkpt>
      <trkpt lat="43.07552" lon="1.72133">
        <ele>333.1</ele>
        <time>2019-02-13T11:15:50Z</time>
      </trkpt>
      <trkpt lat="43.0754" lon="1.72124">
        <ele>333.1</ele>
        <time>2019-02-13T11:15:47Z</time>
      </trkpt>
      <trkpt lat="43.07532" lon="1.72116">
        <ele>333</ele>
        <time>2019-02-13T11:15:45Z</time>
      </trkpt>
      <trkpt lat="43.07522" lon="1.72106">
        <ele>333.1</ele>
        <time>2019-02-13T11:15:42Z</time>
      </trkpt>
      <trkpt lat="43.07514" lon="1.72096">
        <ele>333.1</ele>
        <time>2019-02-13T11:15:38Z</time>
      </trkpt>
      <trkpt lat="43.07505" lon="1.72085">
        <ele>333.2</ele>
        <time>2019-02-13T11:15:33Z</time>
      </trkpt>
      <trkpt lat="43.07497" lon="1.72077">
        <ele>333.4</ele>
        <time>2019-02-13T11:15:27Z</time>
      </trkpt>
      <trkpt lat="43.07489" lon="1.7207">
        <ele>333.7</ele>
        <time>2019-02-13T11:15:22Z</time>
      </trkpt>
      <trkpt lat="43.07481" lon="1.72063">
        <ele>334.1</ele>
        <time>2019-02-13T11:15:16Z</time>
      </trkpt>
      <trkpt lat="43.07473" lon="1.72057">
        <ele>334.4</ele>
        <time>2019-02-13T11:15:11Z</time>
      </trkpt>
      <trkpt lat="43.07463" lon="1.72057">
        <ele>334.7</ele>
        <time>2019-02-13T11:15:06Z</time>
      </trkpt>
      <trkpt lat="43.07456" lon="1.72068">
        <ele>334.9</ele>
        <time>2019-02-13T11:15:03Z</time>
      </trkpt>
      <trkpt lat="43.07452" lon="1.72083">
        <ele>335.1</ele>
        <time>2019-02-13T11:15:00Z</time>
      </trkpt>
      <trkpt lat="43.07445" lon="1.72092">
        <ele>335.2</ele>
        <time>2019-02-13T11:14:57Z</time>
      </trkpt>
      <trkpt lat="43.07439" lon="1.72105">
        <ele>335.4</ele>
        <time>2019-02-13T11:14:53Z</time>
      </trkpt>
      <trkpt lat="43.07429" lon="1.72113">
        <ele>335.5</ele>
        <time>2019-02-13T11:14:49Z</time>
      </trkpt>
      <trkpt lat="43.0742" lon="1.72121">
        <ele>335.6</ele>
        <time>2019-02-13T11:14:46Z</time>
      </trkpt>
      <trkpt lat="43.0741" lon="1.7213">
        <ele>335.9</ele>
        <time>2019-02-13T11:14:43Z</time>
      </trkpt>
      <trkpt lat="43.07401" lon="1.7214">
        <ele>336</ele>
        <time>2019-02-13T11:14:40Z</time>
      </trkpt>
      <trkpt lat="43.07392" lon="1.72149">
        <ele>336.1</ele>
        <time>2019-02-13T11:14:37Z</time>
      </trkpt>
      <trkpt lat="43.07385" lon="1.72158">
        <ele>336.1</ele>
        <time>2019-02-13T11:14:33Z</time>
      </trkpt>
      <trkpt lat="43.07378" lon="1.72167">
        <ele>336.2</ele>
        <time>2019-02-13T11:14:29Z</time>
      </trkpt>
      <trkpt lat="43.0737" lon="1.72178">
        <ele>336.3</ele>
        <time>2019-02-13T11:14:25Z</time>
      </trkpt>
      <trkpt lat="43.07362" lon="1.72186">
        <ele>336.5</ele>
        <time>2019-02-13T11:14:23Z</time>
      </trkpt>
      <trkpt lat="43.07355" lon="1.72195">
        <ele>336.8</ele>
        <time>2019-02-13T11:14:21Z</time>
      </trkpt>
      <trkpt lat="43.07346" lon="1.72206">
        <ele>337.1</ele>
        <time>2019-02-13T11:14:19Z</time>
      </trkpt>
      <trkpt lat="43.07337" lon="1.7221">
        <ele>337.5</ele>
        <time>2019-02-13T11:14:17Z</time>
      </trkpt>
      <trkpt lat="43.07328" lon="1.72214">
        <ele>337.9</ele>
        <time>2019-02-13T11:14:15Z</time>
      </trkpt>
      <trkpt lat="43.07318" lon="1.7222">
        <ele>338.1</ele>
        <time>2019-02-13T11:14:12Z</time>
      </trkpt>
      <trkpt lat="43.07308" lon="1.72228">
        <ele>338.3</ele>
        <time>2019-02-13T11:14:09Z</time>
      </trkpt>
      <trkpt lat="43.07299" lon="1.72239">
        <ele>338.6</ele>
        <time>2019-02-13T11:14:06Z</time>
      </trkpt>
      <trkpt lat="43.07292" lon="1.72253">
        <ele>338.7</ele>
        <time>2019-02-13T11:14:03Z</time>
      </trkpt>
      <trkpt lat="43.07284" lon="1.72267">
        <ele>338.7</ele>
        <time>2019-02-13T11:14:00Z</time>
      </trkpt>
      <trkpt lat="43.07277" lon="1.72282">
        <ele>338.7</ele>
        <time>2019-02-13T11:13:57Z</time>
      </trkpt>
      <trkpt lat="43.07277" lon="1.72282">
        <ele>338.7</ele>
        <time>2019-02-13T11:13:57Z</time>
      </trkpt>
    </trkseg>
  </trk>
</gpx>